Observation data for Colorado City on 09/10/2017      Previous  Date       Current Mesonet Observations  Soil Data  Daily Summary Page  Observations in Plain Language
KCO2 100500Z 13006KT 17/10 A3019 RMK A01 T01650103  RH  067%=      5-min Rain = 0
KCO2 100501Z 13006KT 17/10 A3019 RMK A01 T01650104  RH  067%=      5-min Rain = 0
KCO2 100502Z 13006KT 17/10 A3019 RMK A01 T01650104  RH  067%=      5-min Rain = 0
KCO2 100503Z 13007KT 17/10 A3019 RMK A01 T01650104  RH  067%=      5-min Rain = 0
KCO2 100504Z 13007KT 17/11 A3019 RMK A01 T01680105  RH  066%=      5-min Rain = 0
KCO2 100505Z 13006KT 17/11 A3019 RMK A01 T01700105  RH  066%=      5-min Rain = 0
KCO2 100506Z 13007KT 17/11 A3019 RMK A01 T01700105  RH  065%=      5-min Rain = 0
KCO2 100507Z 13006KT 17/11 A3019 RMK A01 T01710105  RH  065%=      5-min Rain = 0
KCO2 100508Z 13006KT 17/11 A3019 RMK A01 T01720106  RH  065%=      5-min Rain = 0
KCO2 100509Z 12006KT 17/11 A3019 RMK A01 T01730106  RH  065%=      5-min Rain = 0
KCO2 100510Z 12007KT 17/11 A3019 RMK A01 T01740106  RH  064%=      5-min Rain = 0
KCO2 100511Z 12006KT 18/11 A3019 RMK A01 T01750107  RH  064%=      5-min Rain = 0
KCO2 100512Z 12006KT 18/11 A3019 RMK A01 T01750107  RH  064%=      5-min Rain = 0
KCO2 100513Z 12006KT 18/11 A3019 RMK A01 T01760107  RH  064%=      5-min Rain = 0
KCO2 100514Z 12006KT 18/11 A3019 RMK A01 T01760107  RH  064%=      5-min Rain = 0
KCO2 100515Z 12006KT 18/11 A3019 RMK A01 T01760107  RH  064%=      5-min Rain = 0
KCO2 100516Z 12007KT 18/11 A3019 RMK A01 T01760107  RH  064%=      5-min Rain = 0
KCO2 100517Z 12006KT 18/11 A3019 RMK A01 T01760107  RH  064%=      5-min Rain = 0
KCO2 100518Z 12007KT 18/11 A3019 RMK A01 T01760107  RH  064%=      5-min Rain = 0
KCO2 100519Z 12006KT 18/11 A3019 RMK A01 T01760107  RH  064%=      5-min Rain = 0
KCO2 100520Z 12006KT 18/11 A3019 RMK A01 T01760108  RH  064%=      5-min Rain = 0
KCO2 100521Z 12006KT 18/11 A3019 RMK A01 T01760107  RH  064%=      5-min Rain = 0
KCO2 100522Z 12006KT 18/11 A3019 RMK A01 T01750107  RH  064%=      5-min Rain = 0
KCO2 100523Z 12005KT 18/11 A3019 RMK A01 T01750107  RH  065%=      5-min Rain = 0
KCO2 100524Z 12005KT 17/11 A3019 RMK A01 T01740107  RH  065%=      5-min Rain = 0
KCO2 100525Z 12004KT 17/11 A3019 RMK A01 T01740107  RH  065%=      5-min Rain = 0
KCO2 100526Z 12004KT 17/11 A3019 RMK A01 T01730107  RH  065%=      5-min Rain = 0
KCO2 100527Z 12004KT 17/11 A3019 RMK A01 T01740106  RH  065%=      5-min Rain = 0
KCO2 100528Z 12004KT 17/11 A3019 RMK A01 T01740106  RH  064%=      5-min Rain = 0
KCO2 100529Z 12004KT 18/11 A3019 RMK A01 T01750106  RH  064%=      5-min Rain = 0
KCO2 100530Z 13004KT 18/11 A3019 RMK A01 T01750106  RH  064%=      5-min Rain = 0
KCO2 100531Z 13004KT 18/11 A3019 RMK A01 T01750107  RH  064%=      5-min Rain = 0
KCO2 100532Z 13004KT 18/11 A3019 RMK A01 T01750107  RH  064%=      5-min Rain = 0
KCO2 100533Z 13004KT 18/11 A3019 RMK A01 T01750106  RH  064%=      5-min Rain = 0
KCO2 100534Z 13004KT 18/11 A3019 RMK A01 T01760107  RH  064%=      5-min Rain = 0
KCO2 100535Z 13004KT 18/11 A3019 RMK A01 T01760107  RH  064%=      5-min Rain = 0
KCO2 100536Z 12005KT 18/11 A3019 RMK A01 T01770107  RH  064%=      5-min Rain = 0
KCO2 100537Z 12005KT 18/11 A3019 RMK A01 T01780108  RH  063%=      5-min Rain = 0
KCO2 100538Z 12005KT 18/11 A3019 RMK A01 T01780108  RH  063%=      5-min Rain = 0
KCO2 100539Z 12005KT 18/11 A3019 RMK A01 T01790108  RH  063%=      5-min Rain = 0
KCO2 100540Z 12005KT 18/11 A3019 RMK A01 T01790109  RH  063%=      5-min Rain = 0
KCO2 100541Z 12005KT 18/11 A3019 RMK A01 T01790109  RH  063%=      5-min Rain = 0
KCO2 100542Z 12005KT 18/11 A3019 RMK A01 T01800109  RH  063%=      5-min Rain = 0
KCO2 100543Z 12005KT 18/11 A3019 RMK A01 T01800109  RH  063%=      5-min Rain = 0
KCO2 100544Z 12005KT 18/11 A3019 RMK A01 T01790109  RH  064%=      5-min Rain = 0
KCO2 100545Z 12005KT 18/11 A3019 RMK A01 T01780109  RH  064%=      5-min Rain = 0
KCO2 100546Z 12005KT 18/11 A3019 RMK A01 T01770109  RH  064%=      5-min Rain = 0
KCO2 100547Z 12006KT 18/11 A3019 RMK A01 T01780109  RH  064%=      5-min Rain = 0
KCO2 100548Z 12006KT 18/11 A3019 RMK A01 T01770109  RH  064%=      5-min Rain = 0
KCO2 100549Z 12006KT 18/11 A3019 RMK A01 T01770110  RH  065%=      5-min Rain = 0
KCO2 100550Z 12006KT 18/11 A3019 RMK A01 T01770110  RH  065%=      5-min Rain = 0
KCO2 100551Z 12006KT 18/11 A3019 RMK A01 T01770110  RH  065%=      5-min Rain = 0
KCO2 100552Z 12005KT 18/11 A3019 RMK A01 T01760110  RH  065%=      5-min Rain = 0
KCO2 100553Z 12005KT 18/11 A3019 RMK A01 T01750110  RH  066%=      5-min Rain = 0
KCO2 100554Z 11005KT 18/11 A3019 RMK A01 T01750110  RH  066%=      5-min Rain = 0
KCO2 100555Z 11005KT 18/11 A3019 RMK A01 T01750110  RH  066%=      5-min Rain = 0
KCO2 100556Z 11005KT 17/11 A3019 RMK A01 T01740110  RH  066%=      5-min Rain = 0
KCO2 100557Z 10005KT 18/11 A3019 RMK A01 T01750111  RH  066%=      5-min Rain = 0
KCO2 100558Z 10005KT 18/11 A3019 RMK A01 T01760111  RH  066%=      5-min Rain = 0
KCO2 100559Z 10005KT 18/11 A3019 RMK A01 T01770112  RH  066%=      5-min Rain = 0
KCO2 100600Z 10005KT 18/11 A3019 RMK A01 T01780112  RH  065%=      5-min Rain = 0
KCO2 100601Z 10005KT 18/11 A3019 RMK A01 T01790112  RH  065%=      5-min Rain = 0
KCO2 100602Z 11005KT 18/11 A3019 RMK A01 T01790112  RH  065%=      5-min Rain = 0
KCO2 100603Z 11005KT 18/11 A3019 RMK A01 T01790112  RH  065%=      5-min Rain = 0
KCO2 100604Z 11005KT 18/11 A3019 RMK A01 T01770112  RH  066%=      5-min Rain = 0
KCO2 100605Z 11005KT 18/11 A3019 RMK A01 T01760112  RH  066%=      5-min Rain = 0
KCO2 100606Z 11005KT 18/11 A3019 RMK A01 T01760112  RH  066%=      5-min Rain = 0
KCO2 100607Z 11005KT 18/11 A3019 RMK A01 T01760112  RH  066%=      5-min Rain = 0
KCO2 100608Z 10005KT 18/11 A3019 RMK A01 T01750112  RH  066%=      5-min Rain = 0
KCO2 100609Z 10005KT 18/11 A3019 RMK A01 T01750112  RH  067%=      5-min Rain = 0
KCO2 100610Z 10005KT 17/11 A3019 RMK A01 T01730111  RH  067%=      5-min Rain = 0
KCO2 100611Z 10006KT 17/11 A3019 RMK A01 T01720111  RH  067%=      5-min Rain = 0
KCO2 100612Z 10006KT 17/11 A3019 RMK A01 T01720111  RH  067%=      5-min Rain = 0
KCO2 100613Z 10006KT 17/11 A3019 RMK A01 T01710111  RH  068%=      5-min Rain = 0
KCO2 100614Z 10006KT 17/11 A3019 RMK A01 T01710111  RH  068%=      5-min Rain = 0
KCO2 100615Z 10006KT 17/11 A3019 RMK A01 T01700111  RH  068%=      5-min Rain = 0
KCO2 100616Z 10006KT 17/11 A3019 RMK A01 T01700111  RH  068%=      5-min Rain = 0
KCO2 100617Z 10006KT 17/11 A3019 RMK A01 T01700111  RH  068%=      5-min Rain = 0
KCO2 100618Z 10006KT 17/11 A3019 RMK A01 T01700111  RH  068%=      5-min Rain = 0
KCO2 100619Z 10006KT 17/11 A3019 RMK A01 T01700111  RH  068%=      5-min Rain = 0
KCO2 100620Z 10006KT 17/11 A3019 RMK A01 T01690111  RH  068%=      5-min Rain = 0
KCO2 100621Z 11006KT 17/11 A3019 RMK A01 T01690111  RH  068%=      5-min Rain = 0
KCO2 100622Z 11006KT 17/11 A3019 RMK A01 T01690111  RH  068%=      5-min Rain = 0
KCO2 100623Z 11006KT 17/11 A3019 RMK A01 T01690110  RH  068%=      5-min Rain = 0
KCO2 100624Z 11006KT 17/11 A3019 RMK A01 T01690111  RH  068%=      5-min Rain = 0
KCO2 100625Z 11006KT 17/11 A3019 RMK A01 T01690111  RH  068%=      5-min Rain = 0
KCO2 100626Z 11005KT 17/11 A302 RMK A01 T01700111  RH  068%=      5-min Rain = 0
KCO2 100627Z 12005KT 17/11 A302 RMK A01 T01700111  RH  068%=      5-min Rain = 0
KCO2 100628Z 11005KT 17/11 A302 RMK A01 T01710111  RH  068%=      5-min Rain = 0
KCO2 100629Z 11005KT 17/11 A302 RMK A01 T01710110  RH  067%=      5-min Rain = 0
KCO2 100630Z 12005KT 17/11 A302 RMK A01 T01710111  RH  067%=      5-min Rain = 0
KCO2 100631Z 12005KT 17/11 A302 RMK A01 T01710111  RH  068%=      5-min Rain = 0
KCO2 100632Z 12005KT 17/11 A302 RMK A01 T01700110  RH  068%=      5-min Rain = 0
KCO2 100633Z 13005KT 17/11 A302 RMK A01 T01690111  RH  068%=      5-min Rain = 0
KCO2 100634Z 13005KT 17/11 A302 RMK A01 T01680110  RH  069%=      5-min Rain = 0
KCO2 100635Z 13006KT 17/11 A3019 RMK A01 T01680110  RH  069%=      5-min Rain = 0
KCO2 100636Z 13006KT 17/11 A3019 RMK A01 T01680110  RH  069%=      5-min Rain = 0
KCO2 100637Z 13006KT 17/11 A3019 RMK A01 T01680110  RH  069%=      5-min Rain = 0
KCO2 100638Z 13006KT 17/11 A3019 RMK A01 T01680111  RH  069%=      5-min Rain = 0
KCO2 100639Z 13006KT 17/11 A3019 RMK A01 T01680111  RH  069%=      5-min Rain = 0
KCO2 100640Z 13006KT 17/11 A3019 RMK A01 T01670111  RH  069%=      5-min Rain = 0
KCO2 100641Z 13006KT 17/11 A3019 RMK A01 T01670111  RH  069%=      5-min Rain = 0
KCO2 100642Z 13006KT 17/11 A3019 RMK A01 T01660110  RH  070%=      5-min Rain = 0
KCO2 100643Z 13005KT 17/11 A3019 RMK A01 T01650110  RH  070%=      5-min Rain = 0
KCO2 100644Z 13005KT 16/11 A3019 RMK A01 T01640110  RH  070%=      5-min Rain = 0
KCO2 100645Z 13005KT 16/11 A3019 RMK A01 T01630110  RH  071%=      5-min Rain = 0
KCO2 100646Z 13005KT 16/11 A3019 RMK A01 T01630110  RH  071%=      5-min Rain = 0
KCO2 100647Z 13005KT 16/11 A3019 RMK A01 T01630110  RH  071%=      5-min Rain = 0
KCO2 100648Z 14005KT 16/11 A302 RMK A01 T01630110  RH  071%=      5-min Rain = 0
KCO2 100649Z 14005KT 16/11 A302 RMK A01 T01630110  RH  071%=      5-min Rain = 0
KCO2 100650Z 14005KT 16/11 A302 RMK A01 T01630110  RH  071%=      5-min Rain = 0
KCO2 100651Z 14005KT 16/11 A302 RMK A01 T01630110  RH  071%=      5-min Rain = 0
KCO2 100652Z 14006KT 16/11 A302 RMK A01 T01630110  RH  071%=      5-min Rain = 0
KCO2 100653Z 14006KT 16/11 A302 RMK A01 T01620109  RH  071%=      5-min Rain = 0
KCO2 100654Z 14006KT 16/11 A302 RMK A01 T01620109  RH  071%=      5-min Rain = 0
KCO2 100655Z 14006KT 16/11 A302 RMK A01 T01610109  RH  071%=      5-min Rain = 0
KCO2 100656Z 15006KT 16/11 A302 RMK A01 T01610109  RH  071%=      5-min Rain = 0
KCO2 100657Z 15005KT 16/11 A302 RMK A01 T01590109  RH  072%=      5-min Rain = 0
KCO2 100658Z 15005KT 16/11 A302 RMK A01 T01580109  RH  072%=      5-min Rain = 0
KCO2 100659Z 15005KT 16/11 A302 RMK A01 T01570109  RH  073%=      5-min Rain = 0
KCO2 100700Z 15005KT 16/11 A302 RMK A01 T01560109  RH  073%=      5-min Rain = 0
KCO2 100701Z 15005KT 16/11 A302 RMK A01 T01550108  RH  073%=      5-min Rain = 0
KCO2 100702Z 15005KT 16/11 A302 RMK A01 T01550109  RH  074%=      5-min Rain = 0
KCO2 100703Z 16005KT 15/11 A302 RMK A01 T01540109  RH  074%=      5-min Rain = 0
KCO2 100704Z 16005KT 15/11 A302 RMK A01 T01540109  RH  074%=      5-min Rain = 0
KCO2 100705Z 16005KT 15/11 A302 RMK A01 T01530108  RH  075%=      5-min Rain = 0
KCO2 100706Z 17005KT 15/11 A302 RMK A01 T01520107  RH  075%=      5-min Rain = 0
KCO2 100707Z 17006KT 15/11 A302 RMK A01 T01510107  RH  075%=      5-min Rain = 0
KCO2 100708Z 16006KT 15/11 A302 RMK A01 T01500107  RH  076%=      5-min Rain = 0
KCO2 100709Z 16006KT 15/11 A302 RMK A01 T01500108  RH  076%=      5-min Rain = 0
KCO2 100710Z 16006KT 15/11 A302 RMK A01 T01500108  RH  076%=      5-min Rain = 0
KCO2 100711Z 16006KT 15/11 A302 RMK A01 T01500107  RH  076%=      5-min Rain = 0
KCO2 100712Z 16006KT 15/11 A302 RMK A01 T01500107  RH  075%=      5-min Rain = 0
KCO2 100713Z 15006KT 15/11 A302 RMK A01 T01500107  RH  075%=      5-min Rain = 0
KCO2 100714Z 15006KT 15/11 A302 RMK A01 T01500107  RH  075%=      5-min Rain = 0
KCO2 100715Z 15006KT 15/11 A302 RMK A01 T01510108  RH  075%=      5-min Rain = 0
KCO2 100716Z 15006KT 15/11 A302 RMK A01 T01520108  RH  075%=      5-min Rain = 0
KCO2 100717Z 15006KT 15/11 A302 RMK A01 T01520108  RH  075%=      5-min Rain = 0
KCO2 100718Z 15006KT 15/11 A302 RMK A01 T01530108  RH  075%=      5-min Rain = 0
KCO2 100719Z 15006KT 15/11 A302 RMK A01 T01530108  RH  074%=      5-min Rain = 0
KCO2 100720Z 15006KT 15/11 A3019 RMK A01 T01520108  RH  075%=      5-min Rain = 0
KCO2 100721Z 15006KT 15/11 A3019 RMK A01 T01510108  RH  075%=      5-min Rain = 0
KCO2 100722Z 15006KT 15/11 A3019 RMK A01 T01510108  RH  076%=      5-min Rain = 0
KCO2 100723Z 15007KT 15/11 A3019 RMK A01 T01500109  RH  076%=      5-min Rain = 0
KCO2 100724Z 15006KT 15/11 A3019 RMK A01 T01500109  RH  076%=      5-min Rain = 0
KCO2 100725Z 15006KT 15/11 A3019 RMK A01 T01500109  RH  076%=      5-min Rain = 0
KCO2 100726Z 15006KT 15/11 A3019 RMK A01 T01490110  RH  077%=      5-min Rain = 0
KCO2 100727Z 15006KT 15/11 A3019 RMK A01 T01500110  RH  077%=      5-min Rain = 0
KCO2 100728Z 15006KT 15/11 A3019 RMK A01 T01500110  RH  077%=      5-min Rain = 0
KCO2 100729Z 15006KT 15/11 A3019 RMK A01 T01500110  RH  077%=      5-min Rain = 0
KCO2 100730Z 15006KT 15/11 A3019 RMK A01 T01510111  RH  077%=      5-min Rain = 0
KCO2 100731Z 14006KT 15/11 A3019 RMK A01 T01510111  RH  077%=      5-min Rain = 0
KCO2 100732Z 14006KT 15/11 A3019 RMK A01 T01510111  RH  077%=      5-min Rain = 0
KCO2 100733Z 14006KT 15/11 A3019 RMK A01 T01520111  RH  076%=      5-min Rain = 0
KCO2 100734Z 14005KT 15/11 A3019 RMK A01 T01530111  RH  076%=      5-min Rain = 0
KCO2 100735Z 14005KT 15/11 A3019 RMK A01 T01530111  RH  076%=      5-min Rain = 0
KCO2 100736Z 14005KT 15/11 A3019 RMK A01 T01540111  RH  076%=      5-min Rain = 0
KCO2 100737Z 14006KT 15/11 A3019 RMK A01 T01540111  RH  076%=      5-min Rain = 0
KCO2 100738Z 14006KT 15/11 A3019 RMK A01 T01540111  RH  075%=      5-min Rain = 0
KCO2 100739Z 14006KT 15/11 A3019 RMK A01 T01540110  RH  075%=      5-min Rain = 0
KCO2 100740Z 14006KT 15/11 A3019 RMK A01 T01540110  RH  075%=      5-min Rain = 0
KCO2 100741Z 14006KT 15/11 A3019 RMK A01 T01540110  RH  075%=      5-min Rain = 0
KCO2 100742Z 14006KT 15/11 A3019 RMK A01 T01540111  RH  075%=      5-min Rain = 0
KCO2 100743Z 14006KT 15/11 A3019 RMK A01 T01540110  RH  075%=      5-min Rain = 0
KCO2 100744Z 14006KT 15/11 A3019 RMK A01 T01530110  RH  075%=      5-min Rain = 0
KCO2 100745Z 14006KT 15/11 A3019 RMK A01 T01530110  RH  075%=      5-min Rain = 0
KCO2 100746Z 14007KT 15/11 A3019 RMK A01 T01520110  RH  076%=      5-min Rain = 0
KCO2 100747Z 14007KT 15/11 A3019 RMK A01 T01520110  RH  076%=      5-min Rain = 0
KCO2 100748Z 15007KT 15/11 A3019 RMK A01 T01520110  RH  076%=      5-min Rain = 0
KCO2 100749Z 15007KT 15/11 A3019 RMK A01 T01520111  RH  076%=      5-min Rain = 0
KCO2 100750Z 15007KT 15/11 A3019 RMK A01 T01510110  RH  076%=      5-min Rain = 0
KCO2 100751Z 15006KT 15/11 A3019 RMK A01 T01510110  RH  076%=      5-min Rain = 0
KCO2 100752Z 14006KT 15/11 A3019 RMK A01 T01510110  RH  076%=      5-min Rain = 0
KCO2 100753Z 14006KT 15/11 A3019 RMK A01 T01520111  RH  076%=      5-min Rain = 0
KCO2 100754Z 14006KT 15/11 A3019 RMK A01 T01520110  RH  076%=      5-min Rain = 0
KCO2 100755Z 14006KT 15/11 A3019 RMK A01 T01520110  RH  076%=      5-min Rain = 0
KCO2 100756Z 14006KT 15/11 A3019 RMK A01 T01520110  RH  076%=      5-min Rain = 0
KCO2 100757Z 14006KT 15/11 A3019 RMK A01 T01520110  RH  076%=      5-min Rain = 0
KCO2 100758Z 14006KT 15/11 A3019 RMK A01 T01520110  RH  076%=      5-min Rain = 0
KCO2 100759Z 14006KT 15/11 A3019 RMK A01 T01520110  RH  076%=      5-min Rain = 0
KCO2 100800Z 13005KT 15/11 A302 RMK A01 T01510111  RH  077%=      5-min Rain = 0
KCO2 100801Z 12004KT 15/11 A302 RMK A01 T01510111  RH  077%=      5-min Rain = 0
KCO2 100802Z 12004KT 15/11 A302 RMK A01 T01520110  RH  076%=      5-min Rain = 0
KCO2 100803Z 11004KT 15/11 A302 RMK A01 T01520109  RH  075%=      5-min Rain = 0
KCO2 100804Z 11004KT 15/11 A302 RMK A01 T01510108  RH  075%=      5-min Rain = 0
KCO2 100805Z 10004KT 15/11 A302 RMK A01 T01500108  RH  076%=      5-min Rain = 0
KCO2 100806Z 10004KT 15/11 A302 RMK A01 T01490107  RH  076%=      5-min Rain = 0
KCO2 100807Z 10004KT 15/11 A302 RMK A01 T01480107  RH  076%=      5-min Rain = 0
KCO2 100808Z 09004KT 15/11 A302 RMK A01 T01470106  RH  077%=      5-min Rain = 0
KCO2 100809Z 09004KT 15/11 A302 RMK A01 T01460106  RH  077%=      5-min Rain = 0
KCO2 100810Z 09004KT 15/11 A302 RMK A01 T01450105  RH  077%=      5-min Rain = 0
KCO2 100811Z 08004KT 14/10 A302 RMK A01 T01440104  RH  077%=      5-min Rain = 0
KCO2 100812Z 07004KT 14/10 A302 RMK A01 T01430103  RH  077%=      5-min Rain = 0
KCO2 100813Z 07004KT 14/10 A302 RMK A01 T01420103  RH  077%=      5-min Rain = 0
KCO2 100814Z 07004KT 14/10 A302 RMK A01 T01410103  RH  078%=      5-min Rain = 0
KCO2 100815Z 07004KT 14/10 A302 RMK A01 T01400103  RH  078%=      5-min Rain = 0
KCO2 100816Z 07005KT 14/10 A302 RMK A01 T01390103  RH  079%=      5-min Rain = 0
KCO2 100817Z 07005KT 14/10 A302 RMK A01 T01380102  RH  079%=      5-min Rain = 0
KCO2 100818Z 07005KT 14/10 A302 RMK A01 T01380103  RH  079%=      5-min Rain = 0
KCO2 100819Z 07005KT 14/10 A302 RMK A01 T01370103  RH  080%=      5-min Rain = 0
KCO2 100820Z 07005KT 14/10 A302 RMK A01 T01370103  RH  080%=      5-min Rain = 0
KCO2 100821Z 08004KT 14/10 A302 RMK A01 T01370103  RH  080%=      5-min Rain = 0
KCO2 100822Z 08004KT 14/10 A302 RMK A01 T01370103  RH  080%=      5-min Rain = 0
KCO2 100823Z 08004KT 14/10 A302 RMK A01 T01380104  RH  080%=      5-min Rain = 0
KCO2 100824Z 08004KT 14/10 A302 RMK A01 T01400104  RH  079%=      5-min Rain = 0
KCO2 100825Z 08004KT 14/10 A302 RMK A01 T01410104  RH  078%=      5-min Rain = 0
KCO2 100826Z 08004KT 14/10 A302 RMK A01 T01410104  RH  078%=      5-min Rain = 0
KCO2 100827Z 08004KT 14/11 A302 RMK A01 T01430105  RH  078%=      5-min Rain = 0
KCO2 100828Z 09004KT 15/11 A302 RMK A01 T01460106  RH  077%=      5-min Rain = 0
KCO2 100829Z 09004KT 15/11 A302 RMK A01 T01480106  RH  076%=      5-min Rain = 0
KCO2 100830Z 09004KT 15/11 A302 RMK A01 T01500106  RH  075%=      5-min Rain = 0
KCO2 100831Z 08004KT 15/11 A302 RMK A01 T01510106  RH  075%=      5-min Rain = 0
KCO2 100832Z 08004KT 15/11 A302 RMK A01 T01510106  RH  074%=      5-min Rain = 0
KCO2 100833Z 08004KT 15/11 A302 RMK A01 T01510106  RH  074%=      5-min Rain = 0
KCO2 100834Z 08004KT 15/11 A302 RMK A01 T01510106  RH  074%=      5-min Rain = 0
KCO2 100835Z 07004KT 15/11 A302 RMK A01 T01510105  RH  074%=      5-min Rain = 0
KCO2 100836Z 07004KT 15/11 A302 RMK A01 T01510106  RH  074%=      5-min Rain = 0
KCO2 100837Z 07004KT 15/11 A302 RMK A01 T01500106  RH  075%=      5-min Rain = 0
KCO2 100838Z 08004KT 15/11 A302 RMK A01 T01490105  RH  075%=      5-min Rain = 0
KCO2 100839Z 08004KT 15/11 A302 RMK A01 T01490106  RH  075%=      5-min Rain = 0
KCO2 100840Z 08004KT 15/11 A302 RMK A01 T01490105  RH  075%=      5-min Rain = 0
KCO2 100841Z 08004KT 15/11 A302 RMK A01 T01490105  RH  075%=      5-min Rain = 0
KCO2 100842Z 08004KT 15/11 A302 RMK A01 T01490105  RH  075%=      5-min Rain = 0
KCO2 100843Z 09004KT 15/11 A302 RMK A01 T01490105  RH  075%=      5-min Rain = 0
KCO2 100844Z 09004KT 15/11 A302 RMK A01 T01500105  RH  075%=      5-min Rain = 0
KCO2 100845Z 10004KT 15/11 A302 RMK A01 T01510106  RH  074%=      5-min Rain = 0
KCO2 100846Z 10005KT 15/11 A302 RMK A01 T01520106  RH  074%=      5-min Rain = 0
KCO2 100847Z 10005KT 15/11 A302 RMK A01 T01540107  RH  073%=      5-min Rain = 0
KCO2 100848Z 11005KT 16/11 A302 RMK A01 T01550107  RH  073%=      5-min Rain = 0
KCO2 100849Z 11004KT 16/11 A302 RMK A01 T01570107  RH  072%=      5-min Rain = 0
KCO2 100850Z 11004KT 16/11 A302 RMK A01 T01570106  RH  072%=      5-min Rain = 0
KCO2 100851Z 11004KT 16/11 A302 RMK A01 T01580107  RH  071%=      5-min Rain = 0
KCO2 100852Z 11004KT 16/11 A302 RMK A01 T01580106  RH  071%=      5-min Rain = 0
KCO2 100853Z 10004KT 16/11 A302 RMK A01 T01580106  RH  071%=      5-min Rain = 0
KCO2 100854Z 11004KT 16/11 A302 RMK A01 T01570106  RH  072%=      5-min Rain = 0
KCO2 100855Z 11004KT 16/11 A302 RMK A01 T01560106  RH  072%=      5-min Rain = 0
KCO2 100856Z 12004KT 16/11 A302 RMK A01 T01560106  RH  072%=      5-min Rain = 0
KCO2 100857Z 11003KT 16/11 A302 RMK A01 T01560106  RH  072%=      5-min Rain = 0
KCO2 100858Z 11003KT 16/11 A302 RMK A01 T01560106  RH  072%=      5-min Rain = 0
KCO2 100859Z 11003KT 16/11 A302 RMK A01 T01570106  RH  072%=      5-min Rain = 0
KCO2 100900Z 11003KT 16/11 A302 RMK A01 T01570106  RH  072%=      5-min Rain = 0
KCO2 100901Z 11003KT 16/11 A302 RMK A01 T01570106  RH  071%=      5-min Rain = 0
KCO2 100902Z 11003KT 16/11 A302 RMK A01 T01580106  RH  071%=      5-min Rain = 0
KCO2 100903Z 12003KT 16/11 A302 RMK A01 T01580106  RH  071%=      5-min Rain = 0
KCO2 100904Z 12003KT 16/11 A302 RMK A01 T01580106  RH  071%=      5-min Rain = 0
KCO2 100905Z 12003KT 16/11 A302 RMK A01 T01580106  RH  071%=      5-min Rain = 0
KCO2 100906Z 12002KT 16/11 A302 RMK A01 T01580106  RH  071%=      5-min Rain = 0
KCO2 100907Z 12002KT 16/11 A302 RMK A01 T01580106  RH  071%=      5-min Rain = 0
KCO2 100908Z 13002KT 16/11 A302 RMK A01 T01580106  RH  071%=      5-min Rain = 0
KCO2 100909Z 12003KT 16/11 A302 RMK A01 T01580106  RH  071%=      5-min Rain = 0
KCO2 100910Z 12002KT 16/11 A302 RMK A01 T01580106  RH  071%=      5-min Rain = 0
KCO2 100911Z 12002KT 16/11 A302 RMK A01 T01570106  RH  071%=      5-min Rain = 0
KCO2 100912Z 12002KT 16/11 A302 RMK A01 T01570106  RH  071%=      5-min Rain = 0
KCO2 100913Z 11002KT 16/11 A302 RMK A01 T01570106  RH  071%=      5-min Rain = 0
KCO2 100914Z 11003KT 16/11 A302 RMK A01 T01580106  RH  071%=      5-min Rain = 0
KCO2 100915Z 10003KT 16/11 A302 RMK A01 T01580106  RH  071%=      5-min Rain = 0
KCO2 100916Z 10003KT 16/11 A302 RMK A01 T01580106  RH  071%=      5-min Rain = 0
KCO2 100917Z 09003KT 16/11 A302 RMK A01 T01570105  RH  071%=      5-min Rain = 0
KCO2 100918Z 10003KT 16/11 A302 RMK A01 T01560105  RH  071%=      5-min Rain = 0
KCO2 100919Z 09003KT 16/11 A302 RMK A01 T01560105  RH  072%=      5-min Rain = 0
KCO2 100920Z 09003KT 16/11 A302 RMK A01 T01550105  RH  072%=      5-min Rain = 0
KCO2 100921Z 10004KT 15/11 A302 RMK A01 T01540105  RH  072%=      5-min Rain = 0
KCO2 100922Z 09003KT 15/11 A302 RMK A01 T01540105  RH  073%=      5-min Rain = 0
KCO2 100923Z 09003KT 15/11 A302 RMK A01 T01530105  RH  073%=      5-min Rain = 0
KCO2 100924Z 10003KT 15/11 A302 RMK A01 T01530105  RH  073%=      5-min Rain = 0
KCO2 100925Z 10004KT 15/11 A302 RMK A01 T01520105  RH  073%=      5-min Rain = 0
KCO2 100926Z 10004KT 15/11 A302 RMK A01 T01520105  RH  073%=      5-min Rain = 0
KCO2 100927Z 10004KT 15/11 A302 RMK A01 T01520105  RH  073%=      5-min Rain = 0
KCO2 100928Z 09004KT 15/11 A302 RMK A01 T01530105  RH  073%=      5-min Rain = 0
KCO2 100929Z 09004KT 15/11 A302 RMK A01 T01530105  RH  073%=      5-min Rain = 0
KCO2 100930Z 09004KT 15/11 A302 RMK A01 T01530105  RH  073%=      5-min Rain = 0
KCO2 100931Z 09004KT 15/11 A302 RMK A01 T01540105  RH  073%=      5-min Rain = 0
KCO2 100932Z 09004KT 15/11 A302 RMK A01 T01530105  RH  073%=      5-min Rain = 0
KCO2 100933Z 09004KT 15/11 A302 RMK A01 T01530105  RH  073%=      5-min Rain = 0
KCO2 100934Z 09004KT 15/11 A302 RMK A01 T01530105  RH  073%=      5-min Rain = 0
KCO2 100935Z 09004KT 15/11 A302 RMK A01 T01530105  RH  073%=      5-min Rain = 0
KCO2 100936Z 09004KT 15/11 A302 RMK A01 T01540105  RH  073%=      5-min Rain = 0
KCO2 100937Z 09004KT 15/11 A302 RMK A01 T01540105  RH  073%=      5-min Rain = 0
KCO2 100938Z 09004KT 15/11 A302 RMK A01 T01530105  RH  073%=      5-min Rain = 0
KCO2 100939Z 09004KT 15/10 A302 RMK A01 T01530104  RH  073%=      5-min Rain = 0
KCO2 100940Z 09004KT 15/10 A302 RMK A01 T01520104  RH  073%=      5-min Rain = 0
KCO2 100941Z 09004KT 15/10 A302 RMK A01 T01520104  RH  073%=      5-min Rain = 0
KCO2 100942Z 09004KT 15/10 A302 RMK A01 T01510103  RH  073%=      5-min Rain = 0
KCO2 100943Z 09004KT 15/10 A302 RMK A01 T01500103  RH  073%=      5-min Rain = 0
KCO2 100944Z 09004KT 15/10 A302 RMK A01 T01500103  RH  073%=      5-min Rain = 0
KCO2 100945Z 09004KT 15/10 A302 RMK A01 T01490102  RH  073%=      5-min Rain = 0
KCO2 100946Z 09004KT 15/10 A302 RMK A01 T01480102  RH  074%=      5-min Rain = 0
KCO2 100947Z 09004KT 15/10 A302 RMK A01 T01470102  RH  074%=      5-min Rain = 0
KCO2 100948Z 10004KT 15/10 A302 RMK A01 T01470102  RH  075%=      5-min Rain = 0
KCO2 100949Z 10004KT 15/10 A302 RMK A01 T01470102  RH  075%=      5-min Rain = 0
KCO2 100950Z 10004KT 15/10 A302 RMK A01 T01470102  RH  074%=      5-min Rain = 0
KCO2 100951Z 10004KT 15/10 A302 RMK A01 T01480102  RH  074%=      5-min Rain = 0
KCO2 100952Z 10004KT 15/10 A302 RMK A01 T01500102  RH  073%=      5-min Rain = 0
KCO2 100953Z 10004KT 15/10 A302 RMK A01 T01500102  RH  073%=      5-min Rain = 0
KCO2 100954Z 10004KT 15/10 A302 RMK A01 T01510102  RH  073%=      5-min Rain = 0
KCO2 100955Z 10004KT 15/10 A302 RMK A01 T01510102  RH  073%=      5-min Rain = 0
KCO2 100956Z 10004KT 15/10 A302 RMK A01 T01510102  RH  073%=      5-min Rain = 0
KCO2 100957Z 09004KT 15/10 A302 RMK A01 T01510102  RH  072%=      5-min Rain = 0
KCO2 100958Z 09004KT 15/10 A302 RMK A01 T01500101  RH  072%=      5-min Rain = 0
KCO2 100959Z 09004KT 15/10 A302 RMK A01 T01490100  RH  073%=      5-min Rain = 0
KCO2 101000Z 09004KT 15/10 A302 RMK A01 T01470099  RH  073%=      5-min Rain = 0
KCO2 101001Z 09004KT 15/10 A302 RMK A01 T01450099  RH  074%=      5-min Rain = 0
KCO2 101002Z 10004KT 14/10 A302 RMK A01 T01440099  RH  075%=      5-min Rain = 0
KCO2 101003Z 10003KT 14/10 A302 RMK A01 T01430100  RH  075%=      5-min Rain = 0
KCO2 101004Z 10003KT 14/10 A302 RMK A01 T01430100  RH  075%=      5-min Rain = 0
KCO2 101005Z 11003KT 14/10 A302 RMK A01 T01430100  RH  075%=      5-min Rain = 0
KCO2 101006Z 11003KT 14/10 A302 RMK A01 T01440101  RH  075%=      5-min Rain = 0
KCO2 101007Z 12003KT 14/10 A302 RMK A01 T01440101  RH  075%=      5-min Rain = 0
KCO2 101008Z 12003KT 15/10 A302 RMK A01 T01450102  RH  075%=      5-min Rain = 0
KCO2 101009Z 12003KT 15/10 A302 RMK A01 T01470102  RH  075%=      5-min Rain = 0
KCO2 101010Z 12003KT 15/10 A302 RMK A01 T01480102  RH  074%=      5-min Rain = 0
KCO2 101011Z 13003KT 15/10 A302 RMK A01 T01480102  RH  074%=      5-min Rain = 0
KCO2 101012Z 14003KT 15/10 A302 RMK A01 T01490102  RH  074%=      5-min Rain = 0
KCO2 101013Z 14003KT 15/10 A302 RMK A01 T01490102  RH  073%=      5-min Rain = 0
KCO2 101014Z 14003KT 15/10 A302 RMK A01 T01480101  RH  074%=      5-min Rain = 0
KCO2 101015Z 14004KT 15/10 A302 RMK A01 T01470102  RH  074%=      5-min Rain = 0
KCO2 101016Z 15004KT 15/10 A302 RMK A01 T01470101  RH  074%=      5-min Rain = 0
KCO2 101017Z 14004KT 15/10 A302 RMK A01 T01470101  RH  074%=      5-min Rain = 0
KCO2 101018Z 14003KT 15/10 A302 RMK A01 T01460098  RH  073%=      5-min Rain = 0
KCO2 101019Z 15003KT 14/10 A302 RMK A01 T01430099  RH  074%=      5-min Rain = 0
KCO2 101020Z 15003KT 14/10 A302 RMK A01 T01400097  RH  075%=      5-min Rain = 0
KCO2 101021Z 16003KT 14/10 A302 RMK A01 T01360097  RH  077%=      5-min Rain = 0
KCO2 101022Z 16004KT 14/10 A302 RMK A01 T01350098  RH  078%=      5-min Rain = 0
KCO2 101023Z 16004KT 14/10 A302 RMK A01 T01370100  RH  079%=      5-min Rain = 0
KCO2 101024Z 16004KT 14/10 A302 RMK A01 T01390101  RH  078%=      5-min Rain = 0
KCO2 101025Z 17003KT 14/10 A302 RMK A01 T01390099  RH  076%=      5-min Rain = 0
KCO2 101026Z 18003KT 14/10 A302 RMK A01 T01380098  RH  077%=      5-min Rain = 0
KCO2 101027Z 18003KT 14/10 A302 RMK A01 T01370098  RH  077%=      5-min Rain = 0
KCO2 101028Z 19003KT 14/10 A302 RMK A01 T01360099  RH  078%=      5-min Rain = 0
KCO2 101029Z 20003KT 14/10 A302 RMK A01 T01350099  RH  079%=      5-min Rain = 0
KCO2 101030Z 21003KT 13/10 A302 RMK A01 T01340098  RH  079%=      5-min Rain = 0
KCO2 101031Z 22003KT 13/10 A3021 RMK A01 T01320095  RH  078%=      5-min Rain = 0
KCO2 101032Z 22002KT 13/09 A3021 RMK A01 T01290093  RH  078%=      5-min Rain = 0
KCO2 101033Z 22002KT 13/09 A3021 RMK A01 T01270093  RH  080%=      5-min Rain = 0
KCO2 101034Z 22002KT 13/09 A3021 RMK A01 T01250091  RH  080%=      5-min Rain = 0
KCO2 101035Z 21002KT 12/09 A3021 RMK A01 T01240093  RH  081%=      5-min Rain = 0
KCO2 101036Z 21002KT 12/10 A3021 RMK A01 T01240095  RH  082%=      5-min Rain = 0
KCO2 101037Z 21001KT 12/10 A3021 RMK A01 T01230096  RH  083%=      5-min Rain = 0
KCO2 101038Z 21001KT 12/10 A3021 RMK A01 T01240097  RH  084%=      5-min Rain = 0
KCO2 101039Z 19001KT 13/10 A3021 RMK A01 T01250098  RH  084%=      5-min Rain = 0
KCO2 101040Z 19001KT 13/10 A3021 RMK A01 T01270098  RH  083%=      5-min Rain = 0
KCO2 101041Z 18001KT 13/10 A3021 RMK A01 T01280098  RH  082%=      5-min Rain = 0
KCO2 101042Z 19001KT 13/10 A3021 RMK A01 T01290097  RH  081%=      5-min Rain = 0
KCO2 101043Z 18001KT 13/10 A3021 RMK A01 T01300097  RH  080%=      5-min Rain = 0
KCO2 101044Z 17001KT 13/10 A3021 RMK A01 T01310097  RH  080%=      5-min Rain = 0
KCO2 101045Z 15001KT 13/10 A3021 RMK A01 T01320095  RH  078%=      5-min Rain = 0
KCO2 101046Z 14001KT 13/10 A3021 RMK A01 T01320095  RH  078%=      5-min Rain = 0
KCO2 101047Z 14001KT 13/10 A3021 RMK A01 T01330095  RH  078%=      5-min Rain = 0
KCO2 101048Z 13002KT 13/09 A3021 RMK A01 T01330094  RH  077%=      5-min Rain = 0
KCO2 101049Z 12002KT 13/09 A3021 RMK A01 T01330093  RH  077%=      5-min Rain = 0
KCO2 101050Z 12002KT 13/10 A3021 RMK A01 T01320095  RH  078%=      5-min Rain = 0
KCO2 101051Z 11002KT 13/09 A3021 RMK A01 T01310094  RH  078%=      5-min Rain = 0
KCO2 101052Z 11003KT 13/09 A3021 RMK A01 T01300092  RH  078%=      5-min Rain = 0
KCO2 101053Z 11003KT 13/09 A3021 RMK A01 T01280092  RH  079%=      5-min Rain = 0
KCO2 101054Z 11003KT 13/09 A3021 RMK A01 T01270092  RH  080%=      5-min Rain = 0
KCO2 101055Z 11003KT 13/09 A3021 RMK A01 T01260093  RH  080%=      5-min Rain = 0
KCO2 101056Z 11002KT 13/09 A3021 RMK A01 T01260094  RH  081%=      5-min Rain = 0
KCO2 101057Z 11003KT 13/10 A3021 RMK A01 T01270095  RH  081%=      5-min Rain = 0
KCO2 101058Z 11003KT 13/10 A3021 RMK A01 T01300097  RH  081%=      5-min Rain = 0
KCO2 101059Z 12003KT 13/10 A3021 RMK A01 T01320098  RH  079%=      5-min Rain = 0
KCO2 101100Z 12003KT 13/10 A3021 RMK A01 T01340098  RH  078%=      5-min Rain = 0
KCO2 101101Z 11003KT 14/10 A3021 RMK A01 T01370100  RH  079%=      5-min Rain = 0
KCO2 101102Z 11003KT 14/10 A3021 RMK A01 T01400102  RH  078%=      5-min Rain = 0
KCO2 101103Z 11003KT 14/10 A3021 RMK A01 T01440103  RH  076%=      5-min Rain = 0
KCO2 101104Z 11003KT 15/10 A3021 RMK A01 T01460103  RH  075%=      5-min Rain = 0
KCO2 101105Z 11003KT 15/10 A3021 RMK A01 T01480103  RH  075%=      5-min Rain = 0
KCO2 101106Z 11004KT 15/10 A3021 RMK A01 T01480103  RH  074%=      5-min Rain = 0
KCO2 101107Z 11004KT 15/10 A3021 RMK A01 T01490103  RH  074%=      5-min Rain = 0
KCO2 101108Z 11004KT 15/10 A3021 RMK A01 T01490103  RH  074%=      5-min Rain = 0
KCO2 101109Z 11004KT 15/10 A3021 RMK A01 T01500103  RH  074%=      5-min Rain = 0
KCO2 101110Z 11004KT 15/10 A3021 RMK A01 T01500103  RH  074%=      5-min Rain = 0
KCO2 101111Z 11004KT 15/10 A3021 RMK A01 T01500103  RH  074%=      5-min Rain = 0
KCO2 101112Z 11004KT 15/10 A3021 RMK A01 T01490103  RH  074%=      5-min Rain = 0
KCO2 101113Z 11004KT 15/10 A3021 RMK A01 T01490103  RH  074%=      5-min Rain = 0
KCO2 101114Z 11004KT 15/10 A3021 RMK A01 T01480103  RH  074%=      5-min Rain = 0
KCO2 101115Z 11004KT 15/10 A3021 RMK A01 T01470103  RH  075%=      5-min Rain = 0
KCO2 101116Z 11004KT 15/10 A3021 RMK A01 T01470103  RH  075%=      5-min Rain = 0
KCO2 101117Z 11004KT 15/10 A3021 RMK A01 T01470103  RH  075%=      5-min Rain = 0
KCO2 101118Z 11004KT 15/10 A3021 RMK A01 T01460103  RH  075%=      5-min Rain = 0
KCO2 101119Z 11004KT 15/10 A3021 RMK A01 T01460103  RH  075%=      5-min Rain = 0
KCO2 101120Z 11004KT 15/10 A3021 RMK A01 T01470103  RH  075%=      5-min Rain = 0
KCO2 101121Z 11004KT 15/10 A3021 RMK A01 T01470103  RH  075%=      5-min Rain = 0
KCO2 101122Z 11004KT 15/10 A3021 RMK A01 T01470103  RH  075%=      5-min Rain = 0
KCO2 101123Z 11004KT 15/10 A3021 RMK A01 T01460103  RH  075%=      5-min Rain = 0
KCO2 101124Z 12004KT 15/10 A3021 RMK A01 T01470103  RH  075%=      5-min Rain = 0
KCO2 101125Z 12004KT 15/10 A3021 RMK A01 T01470103  RH  075%=      5-min Rain = 0
KCO2 101126Z 11004KT 15/10 A3021 RMK A01 T01470103  RH  075%=      5-min Rain = 0
KCO2 101127Z 12004KT 15/10 A3022 RMK A01 T01470103  RH  075%=      5-min Rain = 0
KCO2 101128Z 12004KT 15/10 A3022 RMK A01 T01470104  RH  075%=      5-min Rain = 0
KCO2 101129Z 12004KT 15/10 A3022 RMK A01 T01470103  RH  075%=      5-min Rain = 0
KCO2 101130Z 12004KT 15/10 A3022 RMK A01 T01490104  RH  074%=      5-min Rain = 0
KCO2 101131Z 11004KT 15/10 A3022 RMK A01 T01490103  RH  074%=      5-min Rain = 0
KCO2 101132Z 11004KT 15/10 A3022 RMK A01 T01490103  RH  074%=      5-min Rain = 0
KCO2 101133Z 11004KT 15/10 A3022 RMK A01 T01480103  RH  074%=      5-min Rain = 0
KCO2 101134Z 11004KT 15/10 A3022 RMK A01 T01470102  RH  074%=      5-min Rain = 0
KCO2 101135Z 11004KT 15/10 A3022 RMK A01 T01470103  RH  075%=      5-min Rain = 0
KCO2 101136Z 11004KT 15/10 A3022 RMK A01 T01470103  RH  075%=      5-min Rain = 0
KCO2 101137Z 11004KT 15/10 A3022 RMK A01 T01460102  RH  075%=      5-min Rain = 0
KCO2 101138Z 11003KT 15/10 A3022 RMK A01 T01450102  RH  075%=      5-min Rain = 0
KCO2 101139Z 11004KT 15/10 A3022 RMK A01 T01450102  RH  076%=      5-min Rain = 0
KCO2 101140Z 11004KT 14/10 A3022 RMK A01 T01440102  RH  076%=      5-min Rain = 0
KCO2 101141Z 11003KT 14/10 A3022 RMK A01 T01430102  RH  076%=      5-min Rain = 0
KCO2 101142Z 10003KT 14/10 A3022 RMK A01 T01430102  RH  076%=      5-min Rain = 0
KCO2 101143Z 11003KT 14/10 A3022 RMK A01 T01420102  RH  077%=      5-min Rain = 0
KCO2 101144Z 11003KT 14/10 A3022 RMK A01 T01420102  RH  077%=      5-min Rain = 0
KCO2 101145Z 11003KT 14/10 A3022 RMK A01 T01420102  RH  077%=      5-min Rain = 0
KCO2 101146Z 11003KT 14/10 A3022 RMK A01 T01410102  RH  077%=      5-min Rain = 0
KCO2 101147Z 10003KT 14/10 A3022 RMK A01 T01410102  RH  077%=      5-min Rain = 0
KCO2 101148Z 11003KT 14/10 A3022 RMK A01 T01410102  RH  077%=      5-min Rain = 0
KCO2 101149Z 11003KT 14/10 A3022 RMK A01 T01410102  RH  077%=      5-min Rain = 0
KCO2 101150Z 10004KT 14/10 A3022 RMK A01 T01410102  RH  078%=      5-min Rain = 0
KCO2 101151Z 10004KT 14/10 A3022 RMK A01 T01400102  RH  078%=      5-min Rain = 0
KCO2 101152Z 10004KT 14/10 A3022 RMK A01 T01390102  RH  078%=      5-min Rain = 0
KCO2 101153Z 10004KT 14/10 A3022 RMK A01 T01390102  RH  078%=      5-min Rain = 0
KCO2 101154Z 10004KT 14/10 A3022 RMK A01 T01380102  RH  079%=      5-min Rain = 0
KCO2 101155Z 10004KT 14/10 A3022 RMK A01 T01370102  RH  079%=      5-min Rain = 0
KCO2 101156Z 10004KT 14/10 A3022 RMK A01 T01360102  RH  079%=      5-min Rain = 0
KCO2 101157Z 10004KT 14/10 A3022 RMK A01 T01360102  RH  080%=      5-min Rain = 0
KCO2 101158Z 10004KT 14/10 A3022 RMK A01 T01360101  RH  080%=      5-min Rain = 0
KCO2 101159Z 10004KT 14/10 A3022 RMK A01 T01360102  RH  080%=      5-min Rain = 0
KCO2 101200Z 10004KT 14/10 A3022 RMK A01 T01370102  RH  079%=      5-min Rain = 0
KCO2 101201Z 10004KT 14/10 A3022 RMK A01 T01370102  RH  079%=      5-min Rain = 0
KCO2 101202Z 10004KT 14/10 A3022 RMK A01 T01370102  RH  079%=      5-min Rain = 0
KCO2 101203Z 10004KT 14/10 A3022 RMK A01 T01370102  RH  079%=      5-min Rain = 0
KCO2 101204Z 09004KT 14/10 A3022 RMK A01 T01370102  RH  079%=      5-min Rain = 0
KCO2 101205Z 09004KT 14/10 A3022 RMK A01 T01360102  RH  080%=      5-min Rain = 0
KCO2 101206Z 09004KT 14/10 A3022 RMK A01 T01360102  RH  080%=      5-min Rain = 0
KCO2 101207Z 09004KT 14/10 A3022 RMK A01 T01360102  RH  080%=      5-min Rain = 0
KCO2 101208Z 09005KT 14/10 A3022 RMK A01 T01350102  RH  080%=      5-min Rain = 0
KCO2 101209Z 09005KT 14/10 A3022 RMK A01 T01350102  RH  080%=      5-min Rain = 0
KCO2 101210Z 09005KT 13/10 A3022 RMK A01 T01340101  RH  081%=      5-min Rain = 0
KCO2 101211Z 10005KT 13/10 A3022 RMK A01 T01340101  RH  081%=      5-min Rain = 0
KCO2 101212Z 10005KT 13/10 A3022 RMK A01 T01330101  RH  081%=      5-min Rain = 0
KCO2 101213Z 10004KT 13/10 A3022 RMK A01 T01320101  RH  081%=      5-min Rain = 0
KCO2 101214Z 10005KT 13/10 A3022 RMK A01 T01320101  RH  081%=      5-min Rain = 0
KCO2 101215Z 10005KT 13/10 A3022 RMK A01 T01320101  RH  081%=      5-min Rain = 0
KCO2 101216Z 10004KT 13/10 A3022 RMK A01 T01330101  RH  081%=      5-min Rain = 0
KCO2 101217Z 10004KT 13/10 A3022 RMK A01 T01320101  RH  081%=      5-min Rain = 0
KCO2 101218Z 10005KT 13/10 A3023 RMK A01 T01330101  RH  081%=      5-min Rain = 0
KCO2 101219Z 09004KT 13/10 A3023 RMK A01 T01320101  RH  081%=      5-min Rain = 0
KCO2 101220Z 09004KT 13/10 A3023 RMK A01 T01330101  RH  081%=      5-min Rain = 0
KCO2 101221Z 09004KT 13/10 A3023 RMK A01 T01320101  RH  081%=      5-min Rain = 0
KCO2 101222Z 09004KT 13/10 A3023 RMK A01 T01330101  RH  081%=      5-min Rain = 0
KCO2 101223Z 08004KT 13/10 A3023 RMK A01 T01330102  RH  081%=      5-min Rain = 0
KCO2 101224Z 08004KT 13/10 A3023 RMK A01 T01330102  RH  081%=      5-min Rain = 0
KCO2 101225Z 08004KT 13/10 A3023 RMK A01 T01330102  RH  081%=      5-min Rain = 0
KCO2 101226Z 08004KT 13/10 A3023 RMK A01 T01330102  RH  081%=      5-min Rain = 0
KCO2 101227Z 09004KT 13/10 A3023 RMK A01 T01330102  RH  081%=      5-min Rain = 0
KCO2 101228Z 09004KT 13/10 A3023 RMK A01 T01330101  RH  081%=      5-min Rain = 0
KCO2 101229Z 08004KT 13/10 A3023 RMK A01 T01330101  RH  081%=      5-min Rain = 0
KCO2 101230Z 08004KT 13/10 A3023 RMK A01 T01320101  RH  081%=      5-min Rain = 0
KCO2 101231Z 08005KT 13/10 A3023 RMK A01 T01320101  RH  081%=      5-min Rain = 0
KCO2 101232Z 08005KT 13/10 A3023 RMK A01 T01310100  RH  081%=      5-min Rain = 0
KCO2 101233Z 08005KT 13/10 A3024 RMK A01 T01320101  RH  081%=      5-min Rain = 0
KCO2 101234Z 08006KT 13/10 A3024 RMK A01 T01310101  RH  082%=      5-min Rain = 0
KCO2 101235Z 08006KT 13/10 A3024 RMK A01 T01310101  RH  082%=      5-min Rain = 0
KCO2 101236Z 08006KT 13/10 A3024 RMK A01 T01310101  RH  082%=      5-min Rain = 0
KCO2 101237Z 08006KT 13/10 A3024 RMK A01 T01310101  RH  082%=      5-min Rain = 0
KCO2 101238Z 08006KT 13/10 A3024 RMK A01 T01310101  RH  082%=      5-min Rain = 0
KCO2 101239Z 08006KT 13/10 A3024 RMK A01 T01310101  RH  082%=      5-min Rain = 0
KCO2 101240Z 08006KT 13/10 A3024 RMK A01 T01310101  RH  082%=      5-min Rain = 0
KCO2 101241Z 08007KT 13/10 A3024 RMK A01 T01310101  RH  082%=      5-min Rain = 0
KCO2 101242Z 08007KT 13/10 A3024 RMK A01 T01310101  RH  082%=      5-min Rain = 0
KCO2 101243Z 08007KT 13/10 A3024 RMK A01 T01320102  RH  082%=      5-min Rain = 0
KCO2 101244Z 08007KT 13/10 A3024 RMK A01 T01320102  RH  082%=      5-min Rain = 0
KCO2 101245Z 08007KT 13/10 A3024 RMK A01 T01330102  RH  082%=      5-min Rain = 0
KCO2 101246Z 08007KT 13/10 A3024 RMK A01 T01330102  RH  082%=      5-min Rain = 0
KCO2 101247Z 08007KT 13/10 A3024 RMK A01 T01330103  RH  082%=      5-min Rain = 0
KCO2 101248Z 08007KT 13/10 A3024 RMK A01 T01330103  RH  082%=      5-min Rain = 0
KCO2 101249Z 08006KT 13/10 A3024 RMK A01 T01340103  RH  082%=      5-min Rain = 0
KCO2 101250Z 08006KT 13/10 A3024 RMK A01 T01340103  RH  082%=      5-min Rain = 0
KCO2 101251Z 08006KT 13/10 A3024 RMK A01 T01340103  RH  082%=      5-min Rain = 0
KCO2 101252Z 08006KT 13/10 A3024 RMK A01 T01340103  RH  082%=      5-min Rain = 0
KCO2 101253Z 08006KT 14/10 A3024 RMK A01 T01350104  RH  082%=      5-min Rain = 0
KCO2 101254Z 08006KT 14/10 A3024 RMK A01 T01350104  RH  081%=      5-min Rain = 0
KCO2 101255Z 08006KT 14/10 A3024 RMK A01 T01350104  RH  081%=      5-min Rain = 0
KCO2 101256Z 08006KT 14/11 A3024 RMK A01 T01360105  RH  081%=      5-min Rain = 0
KCO2 101257Z 08006KT 14/11 A3024 RMK A01 T01360105  RH  081%=      5-min Rain = 0
KCO2 101258Z 08006KT 14/11 A3024 RMK A01 T01370105  RH  081%=      5-min Rain = 0
KCO2 101259Z 08006KT 14/11 A3024 RMK A01 T01380106  RH  081%=      5-min Rain = 0
KCO2 101300Z 08006KT 14/11 A3024 RMK A01 T01380106  RH  081%=      5-min Rain = 0
KCO2 101301Z 08006KT 14/11 A3024 RMK A01 T01390107  RH  081%=      5-min Rain = 0
KCO2 101302Z 08006KT 14/11 A3024 RMK A01 T01400107  RH  081%=      5-min Rain = 0
KCO2 101303Z 08006KT 14/11 A3024 RMK A01 T01400107  RH  080%=      5-min Rain = 0
KCO2 101304Z 08006KT 14/11 A3024 RMK A01 T01410108  RH  080%=      5-min Rain = 0
KCO2 101305Z 08006KT 14/11 A3024 RMK A01 T01420108  RH  080%=      5-min Rain = 0
KCO2 101306Z 08005KT 14/11 A3024 RMK A01 T01430108  RH  080%=      5-min Rain = 0
KCO2 101307Z 08005KT 14/11 A3024 RMK A01 T01430108  RH  079%=      5-min Rain = 0
KCO2 101308Z 08005KT 14/11 A3024 RMK A01 T01440109  RH  079%=      5-min Rain = 0
KCO2 101309Z 08005KT 15/11 A3025 RMK A01 T01450109  RH  079%=      5-min Rain = 0
KCO2 101310Z 08005KT 15/11 A3025 RMK A01 T01450109  RH  079%=      5-min Rain = 0
KCO2 101311Z 08006KT 15/11 A3025 RMK A01 T01460110  RH  079%=      5-min Rain = 0
KCO2 101312Z 08005KT 15/11 A3025 RMK A01 T01470110  RH  079%=      5-min Rain = 0
KCO2 101313Z 08006KT 15/11 A3025 RMK A01 T01480111  RH  078%=      5-min Rain = 0
KCO2 101314Z 09005KT 15/11 A3025 RMK A01 T01480111  RH  078%=      5-min Rain = 0
KCO2 101315Z 09005KT 15/11 A3025 RMK A01 T01490111  RH  078%=      5-min Rain = 0
KCO2 101316Z 08005KT 15/11 A3025 RMK A01 T01500112  RH  078%=      5-min Rain = 0
KCO2 101317Z 08005KT 15/11 A3025 RMK A01 T01510112  RH  077%=      5-min Rain = 0
KCO2 101318Z 08005KT 15/11 A3025 RMK A01 T01520113  RH  077%=      5-min Rain = 0
KCO2 101319Z 08004KT 15/11 A3025 RMK A01 T01530113  RH  077%=      5-min Rain = 0
KCO2 101320Z 08005KT 15/11 A3025 RMK A01 T01540113  RH  077%=      5-min Rain = 0
KCO2 101321Z 08005KT 15/11 A3025 RMK A01 T01540114  RH  077%=      5-min Rain = 0
KCO2 101322Z 08005KT 16/11 A3025 RMK A01 T01550114  RH  076%=      5-min Rain = 0
KCO2 101323Z 08005KT 16/11 A3025 RMK A01 T01560113  RH  076%=      5-min Rain = 0
KCO2 101324Z 08005KT 16/11 A3025 RMK A01 T01560114  RH  076%=      5-min Rain = 0
KCO2 101325Z 08004KT 16/11 A3025 RMK A01 T01570114  RH  076%=      5-min Rain = 0
KCO2 101326Z 09005KT 16/12 A3025 RMK A01 T01580115  RH  075%=      5-min Rain = 0
KCO2 101327Z 09005KT 16/11 A3025 RMK A01 T01590114  RH  075%=      5-min Rain = 0
KCO2 101328Z 09004KT 16/12 A3025 RMK A01 T01600115  RH  075%=      5-min Rain = 0
KCO2 101329Z 09004KT 16/12 A3025 RMK A01 T01610115  RH  074%=      5-min Rain = 0
KCO2 101330Z 09004KT 16/12 A3025 RMK A01 T01620115  RH  074%=      5-min Rain = 0
KCO2 101331Z 09005KT 16/11 A3025 RMK A01 T01620114  RH  073%=      5-min Rain = 0
KCO2 101332Z 09005KT 16/11 A3025 RMK A01 T01630114  RH  073%=      5-min Rain = 0
KCO2 101333Z 08004KT 16/12 A3025 RMK A01 T01630115  RH  073%=      5-min Rain = 0
KCO2 101334Z 09005KT 16/12 A3025 RMK A01 T01640115  RH  073%=      5-min Rain = 0
KCO2 101335Z 09005KT 17/12 A3025 RMK A01 T01650116  RH  072%=      5-min Rain = 0
KCO2 101336Z 09005KT 17/12 A3025 RMK A01 T01670115  RH  072%=      5-min Rain = 0
KCO2 101337Z 09005KT 17/12 A3025 RMK A01 T01670115  RH  071%=      5-min Rain = 0
KCO2 101338Z 09005KT 17/12 A3025 RMK A01 T01680116  RH  071%=      5-min Rain = 0
KCO2 101339Z 10005KT 17/12 A3025 RMK A01 T01700116  RH  070%=      5-min Rain = 0
KCO2 101340Z 10005KT 17/12 A3025 RMK A01 T01710116  RH  070%=      5-min Rain = 0
KCO2 101341Z 10005KT 17/12 A3025 RMK A01 T01720117  RH  070%=      5-min Rain = 0
KCO2 101342Z 10005KT 17/12 A3025 RMK A01 T01730116  RH  069%=      5-min Rain = 0
KCO2 101343Z 10005KT 17/12 A3025 RMK A01 T01740115  RH  068%=      5-min Rain = 0
KCO2 101344Z 10005KT 17/12 A3025 RMK A01 T01740115  RH  068%=      5-min Rain = 0
KCO2 101345Z 10004KT 18/12 A3025 RMK A01 T01750117  RH  069%=      5-min Rain = 0
KCO2 101346Z 10005KT 18/12 A3025 RMK A01 T01750117  RH  068%=      5-min Rain = 0
KCO2 101347Z 10005KT 18/12 A3025 RMK A01 T01760116  RH  068%=      5-min Rain = 0
KCO2 101348Z 10005KT 18/12 A3025 RMK A01 T01760117  RH  068%=      5-min Rain = 0
KCO2 101349Z 10006KT 18/12 A3025 RMK A01 T01760116  RH  068%=      5-min Rain = 0
KCO2 101350Z 10006KT 18/12 A3025 RMK A01 T01760116  RH  068%=      5-min Rain = 0
KCO2 101351Z 10006KT 18/12 A3026 RMK A01 T01760116  RH  067%=      5-min Rain = 0
KCO2 101352Z 11005KT 18/12 A3026 RMK A01 T01760117  RH  068%=      5-min Rain = 0
KCO2 101353Z 12007KT 18/12 A3026 RMK A01 T01770116  RH  067%=      5-min Rain = 0
KCO2 101354Z 12006KT 18/12 A3026 RMK A01 T01770115  RH  067%=      5-min Rain = 0
KCO2 101355Z 12005KT 18/12 A3026 RMK A01 T01770119  RH  069%=      5-min Rain = 0
KCO2 101356Z 12005KT 18/12 A3026 RMK A01 T01790118  RH  068%=      5-min Rain = 0
KCO2 101357Z 11006KT 18/12 A3026 RMK A01 T01790118  RH  067%=      5-min Rain = 0
KCO2 101358Z 11005KT 18/12 A3026 RMK A01 T01800118  RH  067%=      5-min Rain = 0
KCO2 101359Z 12005KT 18/12 A3026 RMK A01 T01800119  RH  067%=      5-min Rain = 0
KCO2 101400Z 12005KT 18/12 A3026 RMK A01 T01810120  RH  067%=      5-min Rain = 0
KCO2 101401Z 12006KT 18/12 A3026 RMK A01 T01820119  RH  067%=      5-min Rain = 0
KCO2 101402Z 13005KT 18/12 A3026 RMK A01 T01820119  RH  067%=      5-min Rain = 0
KCO2 101403Z 13006KT 18/12 A3026 RMK A01 T01840119  RH  066%=      5-min Rain = 0
KCO2 101404Z 14007KT 19/12 A3026 RMK A01 T01850118  RH  065%=      5-min Rain = 0
KCO2 101405Z 14006KT 19/12 A3026 RMK A01 T01860115  RH  063%=      5-min Rain = 0
KCO2 101406Z 14006KT 19/12 A3026 RMK A01 T01860116  RH  064%=      5-min Rain = 0
KCO2 101407Z 13005KT 19/12 A3026 RMK A01 T01860117  RH  064%=      5-min Rain = 0
KCO2 101408Z 13005KT 19/12 A3026 RMK A01 T01870116  RH  064%=      5-min Rain = 0
KCO2 101409Z 13005KT 19/12 A3026 RMK A01 T01870117  RH  064%=      5-min Rain = 0
KCO2 101410Z 13004KT 19/12 A3026 RMK A01 T01880121  RH  065%=      5-min Rain = 0
KCO2 101411Z 13004KT 19/12 A3026 RMK A01 T01900121  RH  064%=      5-min Rain = 0
KCO2 101412Z 13005KT 19/12 A3026 RMK A01 T01910121  RH  064%=      5-min Rain = 0
KCO2 101413Z 12007KT 19/12 A3026 RMK A01 T01930121  RH  063%=      5-min Rain = 0
KCO2 101414Z 12006KT 19/12 A3026 RMK A01 T01940119  RH  062%=      5-min Rain = 0
KCO2 101415Z 13006KT 19/12 A3026 RMK A01 T01940118  RH  062%=      5-min Rain = 0
KCO2 101421Z 14005KT 20/12 A3026 RMK A01 T01960120  RH  061%=      5-min Rain = 0
KCO2 101422Z 12005KT 20/12 A3026 RMK A01 T01970119  RH  061%=      5-min Rain = 0
KCO2 101423Z 12005KT 20/12 A3026 RMK A01 T01970118  RH  060%=      5-min Rain = 0
KCO2 101424Z 12005KT 20/12 A3026 RMK A01 T01970118  RH  061%=      5-min Rain = 0
KCO2 101425Z 14004KT 20/12 A3026 RMK A01 T01970121  RH  061%=      5-min Rain = 0
KCO2 101426Z 15004KT 20/12 A3026 RMK A01 T01980118  RH  060%=      5-min Rain = 0
KCO2 101427Z 12006KT 20/12 A3026 RMK A01 T01980118  RH  060%=      5-min Rain = 0
KCO2 101428Z 12005KT 20/12 A3026 RMK A01 T01980118  RH  060%=      5-min Rain = 0
KCO2 101429Z 13006KT 20/12 A3026 RMK A01 T01980119  RH  060%=      5-min Rain = 0
KCO2 101430Z 15005KT 20/12 A3026 RMK A01 T01980118  RH  060%=      5-min Rain = 0
KCO2 101431Z 13005KT 20/12 A3026 RMK A01 T01980117  RH  059%=      5-min Rain = 0
KCO2 101432Z 12005KT 20/12 A3026 RMK A01 T01990119  RH  060%=      5-min Rain = 0
KCO2 101433Z 12005KT 20/12 A3026 RMK A01 T02000120  RH  060%=      5-min Rain = 0
KCO2 101434Z 12005KT 20/12 A3026 RMK A01 T02010119  RH  059%=      5-min Rain = 0
KCO2 101435Z 13005KT 20/12 A3026 RMK A01 T02010119  RH  059%=      5-min Rain = 0
KCO2 101436Z 14005KT 20/12 A3026 RMK A01 T02010120  RH  059%=      5-min Rain = 0
KCO2 101437Z 13005KT 20/12 A3026 RMK A01 T02030118  RH  058%=      5-min Rain = 0
KCO2 101438Z 15003KT 20/12 A3026 RMK A01 T02030119  RH  058%=      5-min Rain = 0
KCO2 101439Z 12004KT 20/12 A3026 RMK A01 T02040122  RH  059%=      5-min Rain = 0
KCO2 101440Z 14005KT 21/12 A3026 RMK A01 T02060122  RH  059%=      5-min Rain = 0
KCO2 101441Z 14005KT 21/12 A3026 RMK A01 T02070121  RH  058%=      5-min Rain = 0
KCO2 101442Z 14005KT 21/12 A3026 RMK A01 T02080120  RH  057%=      5-min Rain = 0
KCO2 101443Z 13004KT 21/12 A3026 RMK A01 T02080117  RH  056%=      5-min Rain = 0
KCO2 101444Z 13006KT 21/12 A3026 RMK A01 T02070120  RH  057%=      5-min Rain = 0
KCO2 101445Z 13005KT 21/12 A3026 RMK A01 T02070118  RH  057%=      5-min Rain = 0
KCO2 101446Z 13005KT 21/12 A3026 RMK A01 T02070118  RH  057%=      5-min Rain = 0
KCO2 101447Z 13005KT 21/12 A3026 RMK A01 T02060118  RH  057%=      5-min Rain = 0
KCO2 101448Z 17005KT 21/12 A3026 RMK A01 T02060118  RH  057%=      5-min Rain = 0
KCO2 101449Z 16005KT 21/12 A3026 RMK A01 T02080118  RH  057%=      5-min Rain = 0
KCO2 101450Z 15006KT 21/12 A3026 RMK A01 T02080118  RH  056%=      5-min Rain = 0
KCO2 101451Z 16005KT 21/12 A3026 RMK A01 T02090118  RH  056%=      5-min Rain = 0
KCO2 101452Z 15005KT 21/12 A3026 RMK A01 T02100119  RH  056%=      5-min Rain = 0
KCO2 101453Z 16007KT 21/12 A3026 RMK A01 T02110119  RH  056%=      5-min Rain = 0
KCO2 101454Z 17007KT 21/12 A3026 RMK A01 T02110119  RH  055%=      5-min Rain = 0
KCO2 101455Z 16005KT 21/12 A3027 RMK A01 T02120118  RH  055%=      5-min Rain = 0
KCO2 101456Z 17006KT 21/12 A3027 RMK A01 T02120119  RH  055%=      5-min Rain = 0
KCO2 101457Z 16005KT 21/12 A3027 RMK A01 T02120117  RH  055%=      5-min Rain = 0
KCO2 101458Z 16006KT 21/12 A3027 RMK A01 T02120119  RH  055%=      5-min Rain = 0
KCO2 101459Z 14004KT 21/12 A3027 RMK A01 T02120119  RH  055%=      5-min Rain = 0
KCO2 101500Z 14006KT 21/12 A3027 RMK A01 T02120119  RH  055%=      5-min Rain = 0
KCO2 101501Z 14005KT 21/12 A3027 RMK A01 T02140120  RH  055%=      5-min Rain = 0
KCO2 101502Z 16005KT 21/12 A3027 RMK A01 T02140119  RH  054%=      5-min Rain = 0
KCO2 101503Z 17005KT 22/12 A3027 RMK A01 T02150119  RH  054%=      5-min Rain = 0
KCO2 101504Z 18004KT 22/12 A3027 RMK A01 T02150120  RH  055%=      5-min Rain = 0
KCO2 101505Z 18005KT 22/12 A3027 RMK A01 T02160121  RH  055%=      5-min Rain = 0
KCO2 101506Z 17005KT 22/12 A3027 RMK A01 T02160120  RH  054%=      5-min Rain = 0
KCO2 101507Z 18005KT 22/12 A3027 RMK A01 T02160119  RH  054%=      5-min Rain = 0
KCO2 101508Z 16004KT 22/12 A3027 RMK A01 T02160118  RH  054%=      5-min Rain = 0
KCO2 101509Z 14006KT 22/12 A3027 RMK A01 T02160120  RH  054%=      5-min Rain = 0
KCO2 101510Z 13006KT 22/12 A3027 RMK A01 T02170121  RH  054%=      5-min Rain = 0
KCO2 101511Z 17006KT 22/12 A3027 RMK A01 T02180121  RH  054%=      5-min Rain = 0
KCO2 101512Z 18005KT 22/12 A3027 RMK A01 T02190118  RH  053%=      5-min Rain = 0
KCO2 101513Z 18005KT 22/12 A3027 RMK A01 T02190121  RH  054%=      5-min Rain = 0
KCO2 101514Z 17005KT 22/12 A3027 RMK A01 T02210122  RH  053%=      5-min Rain = 0
KCO2 101515Z 15006KT 22/12 A3027 RMK A01 T02230120  RH  052%=      5-min Rain = 0
KCO2 101516Z 15008KT 22/12 A3027 RMK A01 T02230121  RH  052%=      5-min Rain = 0
KCO2 101517Z 16009KT 22/12 A3027 RMK A01 T02240119  RH  051%=      5-min Rain = 0
KCO2 101518Z 17007KT 22/12 A3027 RMK A01 T02230118  RH  051%=      5-min Rain = 0
KCO2 101519Z 17007KT 22/12 A3027 RMK A01 T02230119  RH  052%=      5-min Rain = 0
KCO2 101520Z 17007KT 22/12 A3027 RMK A01 T02240120  RH  052%=      5-min Rain = 0
KCO2 101521Z 17009KT 23/12 A3027 RMK A01 T02250120  RH  051%=      5-min Rain = 0
KCO2 101522Z 16009KT 23/12 A3027 RMK A01 T02270120  RH  051%=      5-min Rain = 0
KCO2 101523Z 17006KT 23/12 A3027 RMK A01 T02280120  RH  050%=      5-min Rain = 0
KCO2 101524Z 16007KT 23/12 A3027 RMK A01 T02280121  RH  051%=      5-min Rain = 0
KCO2 101525Z 17009KT 23/12 A3027 RMK A01 T02280119  RH  050%=      5-min Rain = 0
KCO2 101526Z 16007KT 23/12 A3027 RMK A01 T02280119  RH  050%=      5-min Rain = 0
KCO2 101527Z 17007KT 23/12 A3027 RMK A01 T02270120  RH  051%=      5-min Rain = 0
KCO2 101528Z 18006KT 23/12 A3027 RMK A01 T02260120  RH  051%=      5-min Rain = 0
KCO2 101529Z 18007KT 23/12 A3027 RMK A01 T02250120  RH  051%=      5-min Rain = 0
KCO2 101530Z 18008KT 23/12 A3027 RMK A01 T02260122  RH  052%=      5-min Rain = 0
KCO2 101531Z 19007KT 23/12 A3027 RMK A01 T02280121  RH  051%=      5-min Rain = 0
KCO2 101532Z 19008KT 23/12 A3027 RMK A01 T02280121  RH  051%=      5-min Rain = 0
KCO2 101533Z 19008KT 23/12 A3027 RMK A01 T02280122  RH  051%=      5-min Rain = 0
KCO2 101534Z 18006KT 23/12 A3027 RMK A01 T02290124  RH  051%=      5-min Rain = 0
KCO2 101535Z 15008KT 23/12 A3027 RMK A01 T02320123  RH  050%=      5-min Rain = 0
KCO2 101536Z 16007KT 23/12 A3027 RMK A01 T02320122  RH  050%=      5-min Rain = 0
KCO2 101537Z 15008KT 23/12 A3027 RMK A01 T02330122  RH  050%=      5-min Rain = 0
KCO2 101538Z 16008KT 23/12 A3027 RMK A01 T02330122  RH  049%=      5-min Rain = 0
KCO2 101539Z 16008KT 23/12 A3027 RMK A01 T02340122  RH  049%=      5-min Rain = 0
KCO2 101540Z 14008KT 23/12 A3027 RMK A01 T02330120  RH  049%=      5-min Rain = 0
KCO2 101541Z 14007KT 23/12 A3027 RMK A01 T02310122  RH  050%=      5-min Rain = 0
KCO2 101542Z 17009KT 23/12 A3027 RMK A01 T02310122  RH  050%=      5-min Rain = 0
KCO2 101543Z 18008KT 23/12 A3027 RMK A01 T02330122  RH  050%=      5-min Rain = 0
KCO2 101544Z 18006KT 23/12 A3027 RMK A01 T02330120  RH  049%=      5-min Rain = 0
KCO2 101545Z 14007KT 23/12 A3027 RMK A01 T02320121  RH  050%=      5-min Rain = 0
KCO2 101546Z 14008KT 23/12 A3027 RMK A01 T02320121  RH  050%=      5-min Rain = 0
KCO2 101547Z 15008KT 23/12 A3027 RMK A01 T02340123  RH  050%=      5-min Rain = 0
KCO2 101548Z 15007KT 24/12 A3027 RMK A01 T02360122  RH  049%=      5-min Rain = 0
KCO2 101549Z 16008KT 24/12 A3027 RMK A01 T02360121  RH  048%=      5-min Rain = 0
KCO2 101550Z 18009KT 24/12 A3027 RMK A01 T02350122  RH  049%=      5-min Rain = 0
KCO2 101551Z 20010KT 24/12 A3027 RMK A01 T02360122  RH  049%=      5-min Rain = 0
KCO2 101552Z 19009KT 24/12 A3027 RMK A01 T02360121  RH  048%=      5-min Rain = 0
KCO2 101553Z 16006KT 24/12 A3027 RMK A01 T02370123  RH  049%=      5-min Rain = 0
KCO2 101554Z 19007KT 24/12 A3027 RMK A01 T02390124  RH  048%=      5-min Rain = 0
KCO2 101555Z 16004KT 24/12 A3027 RMK A01 T02390121  RH  048%=      5-min Rain = 0
KCO2 101556Z 18006KT 24/12 A3027 RMK A01 T02360121  RH  048%=      5-min Rain = 0
KCO2 101557Z 15006KT 24/12 A3027 RMK A01 T02360120  RH  048%=      5-min Rain = 0
KCO2 101558Z 13006KT 24/12 A3027 RMK A01 T02350121  RH  049%=      5-min Rain = 0
KCO2 101559Z 14006KT 24/12 A3027 RMK A01 T02360124  RH  049%=      5-min Rain = 0
KCO2 101600Z 19006KT 24/12 A3027 RMK A01 T02380123  RH  048%=      5-min Rain = 0
KCO2 101601Z 17008KT 24/12 A3027 RMK A01 T02380121  RH  048%=      5-min Rain = 0
KCO2 101602Z 14006KT 24/12 A3027 RMK A01 T02360121  RH  048%=      5-min Rain = 0
KCO2 101603Z 14006KT 24/12 A3027 RMK A01 T02360123  RH  049%=      5-min Rain = 0
KCO2 101604Z 14006KT 24/12 A3027 RMK A01 T02380123  RH  049%=      5-min Rain = 0
KCO2 101605Z 13006KT 24/12 A3027 RMK A01 T02390121  RH  048%=      5-min Rain = 0
KCO2 101606Z 11005KT 24/12 A3027 RMK A01 T02370122  RH  048%=      5-min Rain = 0
KCO2 101607Z 13005KT 24/12 A3026 RMK A01 T02360124  RH  049%=      5-min Rain = 0
KCO2 101608Z 13007KT 24/12 A3027 RMK A01 T02370124  RH  049%=      5-min Rain = 0
KCO2 101609Z 13005KT 24/12 A3026 RMK A01 T02380124  RH  049%=      5-min Rain = 0
KCO2 101610Z 14008KT 24/13 A3026 RMK A01 T02400125  RH  048%=      5-min Rain = 0
KCO2 101611Z 15006KT 24/12 A3026 RMK A01 T02420122  RH  047%=      5-min Rain = 0
KCO2 101612Z 15006KT 24/12 A3026 RMK A01 T02420121  RH  047%=      5-min Rain = 0
KCO2 101613Z 12005KT 24/12 A3026 RMK A01 T02410121  RH  047%=      5-min Rain = 0
KCO2 101614Z 10005KT 24/12 A3026 RMK A01 T02400124  RH  048%=      5-min Rain = 0
KCO2 101615Z 09004KT 24/12 A3026 RMK A01 T02410122  RH  047%=      5-min Rain = 0
KCO2 101616Z 12005KT 24/12 A3026 RMK A01 T02400122  RH  048%=      5-min Rain = 0
KCO2 101617Z 13006KT 24/13 A3026 RMK A01 T02400125  RH  048%=      5-min Rain = 0
KCO2 101618Z 12006KT 24/13 A3026 RMK A01 T02420125  RH  048%=      5-min Rain = 0
KCO2 101619Z 14004KT 24/12 A3026 RMK A01 T02420123  RH  047%=      5-min Rain = 0
KCO2 101620Z 14006KT 24/13 A3026 RMK A01 T02420125  RH  048%=      5-min Rain = 0
KCO2 101621Z 14008KT 25/13 A3026 RMK A01 T02450127  RH  048%=      5-min Rain = 0
KCO2 101622Z 14007KT 25/12 A3026 RMK A01 T02470123  RH  046%=      5-min Rain = 0
KCO2 101623Z 13006KT 25/12 A3026 RMK A01 T02470124  RH  046%=      5-min Rain = 0
KCO2 101624Z 13003KT 25/12 A3026 RMK A01 T02460121  RH  046%=      5-min Rain = 0
KCO2 101625Z 13006KT 24/12 A3026 RMK A01 T02440124  RH  047%=      5-min Rain = 0
KCO2 101626Z 14008KT 25/12 A3026 RMK A01 T02450124  RH  047%=      5-min Rain = 0
KCO2 101627Z 12006KT 25/12 A3026 RMK A01 T02470122  RH  046%=      5-min Rain = 0
KCO2 101628Z 13006KT 25/12 A3026 RMK A01 T02470122  RH  046%=      5-min Rain = 0
KCO2 101629Z 12006KT 25/13 A3026 RMK A01 T02470125  RH  046%=      5-min Rain = 0
KCO2 101630Z 15007KT 25/12 A3026 RMK A01 T02470123  RH  046%=      5-min Rain = 0
KCO2 101631Z 17006KT 25/12 A3026 RMK A01 T02470123  RH  046%=      5-min Rain = 0
KCO2 101632Z 17003KT 25/12 A3026 RMK A01 T02470123  RH  046%=      5-min Rain = 0
KCO2 101633Z 15003KT 25/12 A3026 RMK A01 T02490121  RH  045%=      5-min Rain = 0
KCO2 101634Z 12007KT 25/12 A3026 RMK A01 T02480122  RH  046%=      5-min Rain = 0
KCO2 101635Z 13006KT 25/12 A3026 RMK A01 T02470124  RH  046%=      5-min Rain = 0
KCO2 101636Z 12004KT 25/12 A3026 RMK A01 T02480122  RH  045%=      5-min Rain = 0
KCO2 101637Z 15006KT 25/12 A3026 RMK A01 T02480121  RH  045%=      5-min Rain = 0
KCO2 101638Z 11004KT 25/12 A3026 RMK A01 T02480121  RH  045%=      5-min Rain = 0
KCO2 101639Z 15005KT 25/12 A3026 RMK A01 T02460121  RH  045%=      5-min Rain = 0
KCO2 101640Z 16008KT 25/12 A3026 RMK A01 T02480120  RH  045%=      5-min Rain = 0
KCO2 101641Z 16006KT 25/12 A3026 RMK A01 T02480119  RH  044%=      5-min Rain = 0
KCO2 101642Z 17005KT 25/12 A3026 RMK A01 T02480117  RH  044%=      5-min Rain = 0
KCO2 101643Z 14004KT 25/12 A3026 RMK A01 T02470121  RH  045%=      5-min Rain = 0
KCO2 101644Z 15007KT 25/12 A3026 RMK A01 T02510123  RH  045%=      5-min Rain = 0
KCO2 101645Z 16005KT 25/12 A3026 RMK A01 T02520118  RH  043%=      5-min Rain = 0
KCO2 101646Z 14003KT 25/12 A3026 RMK A01 T02480118  RH  044%=      5-min Rain = 0
KCO2 101647Z 12004KT 25/12 A3026 RMK A01 T02460120  RH  045%=      5-min Rain = 0
KCO2 101648Z 13008KT 25/13 A3026 RMK A01 T02480125  RH  046%=      5-min Rain = 0
KCO2 101649Z 15008KT 25/12 A3026 RMK A01 T02520120  RH  044%=      5-min Rain = 0
KCO2 101650Z 17005KT 25/12 A3026 RMK A01 T02530119  RH  043%=      5-min Rain = 0
KCO2 101651Z 15005KT 25/12 A3026 RMK A01 T02520120  RH  044%=      5-min Rain = 0
KCO2 101652Z 16004KT 25/12 A3026 RMK A01 T02530123  RH  044%=      5-min Rain = 0
KCO2 101653Z 17007KT 26/12 A3026 RMK A01 T02560124  RH  044%=      5-min Rain = 0
KCO2 101654Z 16006KT 26/12 A3026 RMK A01 T02580122  RH  043%=      5-min Rain = 0
KCO2 101655Z 16005KT 26/12 A3026 RMK A01 T02570123  RH  043%=      5-min Rain = 0
KCO2 101656Z 17006KT 26/12 A3026 RMK A01 T02580124  RH  043%=      5-min Rain = 0
KCO2 101657Z 14006KT 26/12 A3026 RMK A01 T02600124  RH  043%=      5-min Rain = 0
KCO2 101658Z 12004KT 26/12 A3026 RMK A01 T02580123  RH  043%=      5-min Rain = 0
KCO2 101659Z 11001KT 25/12 A3025 RMK A01 T02540122  RH  044%=      5-min Rain = 0
KCO2 101700Z 09001KT 25/12 A3025 RMK A01 T02520120  RH  044%=      5-min Rain = 0
KCO2 101701Z 12002KT 25/12 A3025 RMK A01 T02520119  RH  043%=      5-min Rain = 0
KCO2 101702Z 12004KT 25/12 A3025 RMK A01 T02530121  RH  044%=      5-min Rain = 0
KCO2 101703Z 13007KT 25/12 A3025 RMK A01 T02530119  RH  043%=      5-min Rain = 0
KCO2 101704Z 13006KT 25/12 A3026 RMK A01 T02530119  RH  043%=      5-min Rain = 0
KCO2 101705Z 14004KT 25/12 A3025 RMK A01 T02540117  RH  042%=      5-min Rain = 0
KCO2 101706Z 13007KT 25/12 A3025 RMK A01 T02540119  RH  043%=      5-min Rain = 0
KCO2 101707Z 12004KT 25/12 A3025 RMK A01 T02540119  RH  043%=      5-min Rain = 0
KCO2 101708Z 10007KT 25/12 A3025 RMK A01 T02530123  RH  044%=      5-min Rain = 0
KCO2 101709Z 09004KT 25/12 A3025 RMK A01 T02520120  RH  044%=      5-min Rain = 0
KCO2 101710Z 09004KT 25/12 A3026 RMK A01 T02510123  RH  045%=      5-min Rain = 0
KCO2 101711Z 08008KT 25/12 A3026 RMK A01 T02520124  RH  045%=      5-min Rain = 0
KCO2 101712Z 07007KT 26/12 A3026 RMK A01 T02550121  RH  043%=      5-min Rain = 0
KCO2 101713Z 06005KT 25/12 A3026 RMK A01 T02530120  RH  044%=      5-min Rain = 0
KCO2 101714Z 04003KT 25/12 A3025 RMK A01 T02510120  RH  044%=      5-min Rain = 0
KCO2 101715Z 07003KT 25/12 A3025 RMK A01 T02510121  RH  044%=      5-min Rain = 0
KCO2 101716Z 11005KT 25/12 A3025 RMK A01 T02530121  RH  044%=      5-min Rain = 0
KCO2 101717Z 12006KT 25/12 A3025 RMK A01 T02540122  RH  044%=      5-min Rain = 0
KCO2 101718Z 14008KT 26/12 A3025 RMK A01 T02580123  RH  043%=      5-min Rain = 0
KCO2 101719Z 13009KT 26/12 A3025 RMK A01 T02600122  RH  042%=      5-min Rain = 0
KCO2 101720Z 11007KT 26/12 A3025 RMK A01 T02610122  RH  042%=      5-min Rain = 0
KCO2 101721Z 13009KT 26/13 A3025 RMK A01 T02600125  RH  043%=      5-min Rain = 0
KCO2 101722Z 14008KT 26/12 A3025 RMK A01 T02610123  RH  042%=      5-min Rain = 0
KCO2 101723Z 14007KT 26/12 A3025 RMK A01 T02630122  RH  041%=      5-min Rain = 0
KCO2 101724Z 14006KT 26/12 A3025 RMK A01 T02610122  RH  042%=      5-min Rain = 0
KCO2 101725Z 16004KT 26/12 A3025 RMK A01 T02590119  RH  042%=      5-min Rain = 0
KCO2 101726Z 15003KT 26/12 A3025 RMK A01 T02570121  RH  043%=      5-min Rain = 0
KCO2 101727Z 14003KT 26/12 A3025 RMK A01 T02580121  RH  042%=      5-min Rain = 0
KCO2 101728Z 13002KT 26/12 A3025 RMK A01 T02590119  RH  042%=      5-min Rain = 0
KCO2 101729Z 11002KT 26/12 A3025 RMK A01 T02580122  RH  043%=      5-min Rain = 0
KCO2 101730Z 11004KT 26/12 A3025 RMK A01 T02590121  RH  042%=      5-min Rain = 0
KCO2 101731Z 13002KT 26/12 A3025 RMK A01 T02580120  RH  042%=      5-min Rain = 0
KCO2 101732Z 12003KT 26/12 A3025 RMK A01 T02570121  RH  043%=      5-min Rain = 0
KCO2 101733Z 12003KT 26/12 A3025 RMK A01 T02580119  RH  042%=      5-min Rain = 0
KCO2 101734Z 10004G9KT 26/12 A3025 RMK A01 T02580122  RH  043%=      5-min Rain = 0
KCO2 101735Z 11009KT 26/13 A3025 RMK A01 T02600125  RH  043%=      5-min Rain = 0
KCO2 101736Z 12007KT 26/13 A3025 RMK A01 T02620125  RH  043%=      5-min Rain = 0
KCO2 101737Z 13006KT 26/12 A3025 RMK A01 T02640124  RH  042%=      5-min Rain = 0
KCO2 101738Z 14003KT 26/12 A3025 RMK A01 T02640120  RH  041%=      5-min Rain = 0
KCO2 101739Z 06003KT 26/12 A3025 RMK A01 T02630122  RH  041%=      5-min Rain = 0
KCO2 101740Z 06004KT 26/12 A3025 RMK A01 T02630122  RH  041%=      5-min Rain = 0
KCO2 101741Z 08003KT 26/12 A3025 RMK A01 T02640121  RH  041%=      5-min Rain = 0
KCO2 101742Z 14008KT 26/12 A3025 RMK A01 T02640122  RH  041%=      5-min Rain = 0
KCO2 101743Z 15004KT 26/12 A3025 RMK A01 T02640122  RH  041%=      5-min Rain = 0
KCO2 101744Z 15004KT 26/12 A3025 RMK A01 T02630122  RH  041%=      5-min Rain = 0
KCO2 101745Z 12007KT 26/12 A3025 RMK A01 T02630122  RH  041%=      5-min Rain = 0
KCO2 101746Z 13007KT 27/12 A3025 RMK A01 T02650121  RH  041%=      5-min Rain = 0
KCO2 101747Z 12005KT 27/12 A3025 RMK A01 T02650122  RH  041%=      5-min Rain = 0
KCO2 101748Z 14003KT 27/12 A3025 RMK A01 T02650120  RH  041%=      5-min Rain = 0
KCO2 101749Z 25001KT 26/12 A3025 RMK A01 T02630119  RH  041%=      5-min Rain = 0
KCO2 101750Z 12003KT 26/12 A3025 RMK A01 T02600118  RH  041%=      5-min Rain = 0
KCO2 101751Z 09007KT 26/12 A3025 RMK A01 T02590123  RH  043%=      5-min Rain = 0
KCO2 101752Z 10008KT 26/13 A3025 RMK A01 T02610126  RH  043%=      5-min Rain = 0
KCO2 101753Z 09006KT 26/12 A3025 RMK A01 T02640124  RH  042%=      5-min Rain = 0
KCO2 101754Z 08004KT 27/12 A3025 RMK A01 T02650121  RH  041%=      5-min Rain = 0
KCO2 101755Z 10003KT 26/12 A3024 RMK A01 T02620121  RH  041%=      5-min Rain = 0
KCO2 101756Z 12001KT 26/12 A3024 RMK A01 T02610119  RH  041%=      5-min Rain = 0
KCO2 101757Z 03001KT 26/12 A3024 RMK A01 T02610120  RH  041%=      5-min Rain = 0
KCO2 101758Z 02006KT 26/12 A3024 RMK A01 T02640122  RH  041%=      5-min Rain = 0
KCO2 101759Z 00005KT 26/12 A3024 RMK A01 T02640121  RH  041%=      5-min Rain = 0
KCO2 101800Z 03004KT 26/12 A3024 RMK A01 T02620119  RH  041%=      5-min Rain = 0
KCO2 101801Z 07006KT 26/12 A3024 RMK A01 T02600123  RH  043%=      5-min Rain = 0
KCO2 101802Z 06008KT 26/12 A3024 RMK A01 T02620122  RH  042%=      5-min Rain = 0
KCO2 101803Z 07007KT 26/12 A3024 RMK A01 T02630122  RH  041%=      5-min Rain = 0
KCO2 101804Z 02003KT 26/12 A3024 RMK A01 T02620120  RH  041%=      5-min Rain = 0
KCO2 101805Z 02003KT 26/12 A3024 RMK A01 T02600121  RH  042%=      5-min Rain = 0
KCO2 101806Z 05002KT 26/12 A3024 RMK A01 T02610120  RH  042%=      5-min Rain = 0
KCO2 101807Z 10004KT 26/12 A3024 RMK A01 T02620121  RH  041%=      5-min Rain = 0
KCO2 101808Z 11008KT 26/13 A3024 RMK A01 T02640127  RH  043%=      5-min Rain = 0
KCO2 101809Z 10007KT 27/13 A3024 RMK A01 T02680127  RH  042%=      5-min Rain = 0
KCO2 101810Z 06007KT 27/12 A3024 RMK A01 T02680124  RH  041%=      5-min Rain = 0
KCO2 101811Z 04006KT 26/12 A3024 RMK A01 T02640121  RH  041%=      5-min Rain = 0
KCO2 101812Z 01002KT 26/12 A3024 RMK A01 T02610121  RH  041%=      5-min Rain = 0
KCO2 101813Z 05004KT 26/12 A3024 RMK A01 T02610122  RH  042%=      5-min Rain = 0
KCO2 101814Z 05005KT 26/12 A3024 RMK A01 T02630123  RH  042%=      5-min Rain = 0
KCO2 101815Z 05004KT 26/12 A3023 RMK A01 T02640123  RH  042%=      5-min Rain = 0
KCO2 101816Z 16006KT 27/13 A3023 RMK A01 T02670125  RH  041%=      5-min Rain = 0
KCO2 101817Z 16006KT 27/12 A3023 RMK A01 T02680121  RH  040%=      5-min Rain = 0
KCO2 101818Z 17003KT 27/12 A3023 RMK A01 T02660121  RH  041%=      5-min Rain = 0
KCO2 101819Z 11003KT 27/12 A3023 RMK A01 T02680124  RH  041%=      5-min Rain = 0
KCO2 101820Z 08002KT 27/12 A3023 RMK A01 T02700120  RH  039%=      5-min Rain = 0
KCO2 101821Z 06008KT 27/12 A3023 RMK A01 T02710122  RH  040%=      5-min Rain = 0
KCO2 101822Z 05006KT 27/12 A3023 RMK A01 T02720121  RH  039%=      5-min Rain = 0
KCO2 101823Z 06005KT 27/12 A3023 RMK A01 T02700119  RH  039%=      5-min Rain = 0
KCO2 101824Z 08009KT 27/12 A3023 RMK A01 T02670124  RH  041%=      5-min Rain = 0
KCO2 101825Z 08009KT 27/12 A3023 RMK A01 T02710122  RH  040%=      5-min Rain = 0
KCO2 101826Z 09009KT 27/12 A3023 RMK A01 T02710122  RH  040%=      5-min Rain = 0
KCO2 101827Z 08005KT 27/12 A3023 RMK A01 T02700123  RH  040%=      5-min Rain = 0
KCO2 101828Z 07007KT 27/12 A3023 RMK A01 T02700122  RH  040%=      5-min Rain = 0
KCO2 101829Z 07008KT 27/12 A3023 RMK A01 T02700122  RH  040%=      5-min Rain = 0
KCO2 101830Z 09007KT 27/12 A3023 RMK A01 T02710120  RH  039%=      5-min Rain = 0
KCO2 101831Z 07006KT 27/12 A3023 RMK A01 T02690120  RH  040%=      5-min Rain = 0
KCO2 101832Z 06008KT 27/12 A3023 RMK A01 T02690119  RH  039%=      5-min Rain = 0
KCO2 101833Z 05008KT 27/12 A3023 RMK A01 T02690118  RH  039%=      5-min Rain = 0
KCO2 101834Z 04004G9KT 27/12 A3023 RMK A01 T02680120  RH  040%=      5-min Rain = 0
KCO2 101835Z 06008KT 27/12 A3023 RMK A01 T02700122  RH  040%=      5-min Rain = 0
KCO2 101836Z 06009KT 27/12 A3023 RMK A01 T02730121  RH  039%=      5-min Rain = 0
KCO2 101837Z 07008KT 27/12 A3023 RMK A01 T02740121  RH  039%=      5-min Rain = 0
KCO2 101838Z 08003KT 27/12 A3023 RMK A01 T02740121  RH  039%=      5-min Rain = 0
KCO2 101839Z 08006KT 27/12 A3023 RMK A01 T02730123  RH  039%=      5-min Rain = 0
KCO2 101840Z 09006KT 27/12 A3023 RMK A01 T02740123  RH  039%=      5-min Rain = 0
KCO2 101841Z 06005KT 28/12 A3023 RMK A01 T02750121  RH  038%=      5-min Rain = 0
KCO2 101842Z 06005KT 27/12 A3023 RMK A01 T02740120  RH  038%=      5-min Rain = 0
KCO2 101843Z 07006KT 27/12 A3022 RMK A01 T02720119  RH  039%=      5-min Rain = 0
KCO2 101844Z 07004KT 27/12 A3022 RMK A01 T02700119  RH  039%=      5-min Rain = 0
KCO2 101845Z 03006KT 27/12 A3022 RMK A01 T02700122  RH  040%=      5-min Rain = 0
KCO2 101846Z 05006KT 27/12 A3022 RMK A01 T02730122  RH  039%=      5-min Rain = 0
KCO2 101847Z 03005KT 28/12 A3022 RMK A01 T02750121  RH  039%=      5-min Rain = 0
KCO2 101848Z 03007KT 28/12 A3022 RMK A01 T02750122  RH  039%=      5-min Rain = 0
KCO2 101849Z 02004KT 28/12 A3022 RMK A01 T02760120  RH  038%=      5-min Rain = 0
KCO2 101850Z 01002KT 27/12 A3022 RMK A01 T02730119  RH  038%=      5-min Rain = 0
KCO2 101851Z 26001KT 27/12 A3022 RMK A01 T02710120  RH  039%=      5-min Rain = 0
KCO2 101852Z 14002KT 27/12 A3022 RMK A01 T02730122  RH  039%=      5-min Rain = 0
KCO2 101853Z 09004G9KT 28/12 A3022 RMK A01 T02770123  RH  038%=      5-min Rain = 0
KCO2 101854Z 07005KT 28/12 A3022 RMK A01 T02780121  RH  038%=      5-min Rain = 0
KCO2 101855Z 11005KT 28/12 A3022 RMK A01 T02770118  RH  037%=      5-min Rain = 0
KCO2 101856Z 13007KT 28/12 A3022 RMK A01 T02760119  RH  038%=      5-min Rain = 0
KCO2 101857Z 12006KT 28/12 A3022 RMK A01 T02770119  RH  037%=      5-min Rain = 0
KCO2 101858Z 13005KT 28/12 A3022 RMK A01 T02770117  RH  037%=      5-min Rain = 0
KCO2 101859Z 16004KT 28/12 A3022 RMK A01 T02750118  RH  038%=      5-min Rain = 0
KCO2 101900Z 16004KT 28/12 A3022 RMK A01 T02750118  RH  038%=      5-min Rain = 0
KCO2 101901Z 01003KT 28/12 A3022 RMK A01 T02750119  RH  038%=      5-min Rain = 0
KCO2 101902Z 33004KT 27/12 A3022 RMK A01 T02730116  RH  038%=      5-min Rain = 0
KCO2 101903Z 31003KT 27/12 A3022 RMK A01 T02710116  RH  038%=      5-min Rain = 0
KCO2 101904Z 33003KT 27/12 A3022 RMK A01 T02710116  RH  038%=      5-min Rain = 0
KCO2 101905Z 07003KT 27/12 A3022 RMK A01 T02710117  RH  038%=      5-min Rain = 0
KCO2 101906Z 11006KT 27/12 A3022 RMK A01 T02740121  RH  039%=      5-min Rain = 0
KCO2 101907Z 09005KT 28/12 A3022 RMK A01 T02760120  RH  038%=      5-min Rain = 0
KCO2 101908Z 15006KT 28/12 A3021 RMK A01 T02780120  RH  037%=      5-min Rain = 0
KCO2 101909Z 14004KT 28/12 A3021 RMK A01 T02810118  RH  036%=      5-min Rain = 0
KCO2 101910Z 16005KT 28/12 A3021 RMK A01 T02840120  RH  036%=      5-min Rain = 0
KCO2 101911Z 09004KT 29/12 A3021 RMK A01 T02860120  RH  036%=      5-min Rain = 0
KCO2 101912Z 10005KT 29/12 A3021 RMK A01 T02870122  RH  036%=      5-min Rain = 0
KCO2 101913Z 07008KT 29/12 A3021 RMK A01 T02850120  RH  036%=      5-min Rain = 0
KCO2 101914Z 05006KT 28/12 A3021 RMK A01 T02810118  RH  036%=      5-min Rain = 0
KCO2 101915Z 02007KT 28/12 A3021 RMK A01 T02800119  RH  037%=      5-min Rain = 0
KCO2 101916Z 09005KT 28/12 A3021 RMK A01 T02800119  RH  037%=      5-min Rain = 0
KCO2 101917Z 11004KT 28/12 A3021 RMK A01 T02810118  RH  036%=      5-min Rain = 0
KCO2 101918Z 07006G12KT 28/12 A3021 RMK A01 T02800119  RH  037%=      5-min Rain = 0
KCO2 101919Z 07008G13KT 28/12 A3021 RMK A01 T02800118  RH  037%=      5-min Rain = 0
KCO2 101920Z 08007KT 28/12 A3021 RMK A01 T02780118  RH  037%=      5-min Rain = 0
KCO2 101921Z 07006KT 28/12 A3021 RMK A01 T02770119  RH  038%=      5-min Rain = 0
KCO2 101922Z 06004KT 28/12 A3021 RMK A01 T02780119  RH  037%=      5-min Rain = 0
KCO2 101923Z 13001KT 28/12 A3021 RMK A01 T02790117  RH  037%=      5-min Rain = 0
KCO2 101924Z 04001KT 28/12 A3021 RMK A01 T02800118  RH  036%=      5-min Rain = 0
KCO2 101925Z 07004KT 28/12 A3021 RMK A01 T02830118  RH  036%=      5-min Rain = 0
KCO2 101926Z 06004KT 28/12 A3021 RMK A01 T02830117  RH  036%=      5-min Rain = 0
KCO2 101927Z 01004KT 28/12 A302 RMK A01 T02800115  RH  036%=      5-min Rain = 0
KCO2 101928Z 01002KT 28/12 A302 RMK A01 T02780115  RH  036%=      5-min Rain = 0
KCO2 101929Z 01001KT 28/12 A302 RMK A01 T02780116  RH  036%=      5-min Rain = 0
KCO2 101930Z 01002KT 28/12 A302 RMK A01 T02790116  RH  036%=      5-min Rain = 0
KCO2 101931Z 02003KT 28/12 A302 RMK A01 T02800116  RH  036%=      5-min Rain = 0
KCO2 101932Z 05004G10KT 28/12 A302 RMK A01 T02820118  RH  036%=      5-min Rain = 0
KCO2 101933Z 10010KT 28/12 A302 RMK A01 T02820118  RH  036%=      5-min Rain = 0
KCO2 101934Z 10010KT 28/12 A302 RMK A01 T02840120  RH  036%=      5-min Rain = 0
KCO2 101935Z 08010KT 28/12 A302 RMK A01 T02840121  RH  036%=      5-min Rain = 0
KCO2 101936Z 08009KT 29/12 A302 RMK A01 T02850121  RH  036%=      5-min Rain = 0
KCO2 101937Z 08009KT 28/12 A302 RMK A01 T02830121  RH  037%=      5-min Rain = 0
KCO2 101938Z 08008KT 28/12 A302 RMK A01 T02830121  RH  037%=      5-min Rain = 0
KCO2 101939Z 07004KT 28/12 A302 RMK A01 T02840119  RH  036%=      5-min Rain = 0
KCO2 101940Z 10006KT 28/12 A302 RMK A01 T02840119  RH  036%=      5-min Rain = 0
KCO2 101941Z 09002G7KT 28/12 A302 RMK A01 T02840116  RH  035%=      5-min Rain = 0
KCO2 101942Z 08008KT 28/12 A302 RMK A01 T02840118  RH  036%=      5-min Rain = 0
KCO2 101943Z 08007KT 29/12 A302 RMK A01 T02860121  RH  036%=      5-min Rain = 0
KCO2 101944Z 09006KT 29/12 A302 RMK A01 T02870119  RH  035%=      5-min Rain = 0
KCO2 101945Z 09008KT 29/12 A302 RMK A01 T02870118  RH  035%=      5-min Rain = 0
KCO2 101946Z 09007KT 29/12 A302 RMK A01 T02860118  RH  035%=      5-min Rain = 0
KCO2 101947Z 09006KT 29/12 A302 RMK A01 T02850118  RH  036%=      5-min Rain = 0
KCO2 101948Z 09006KT 29/12 A302 RMK A01 T02860117  RH  035%=      5-min Rain = 0
KCO2 101949Z 10004KT 29/12 A302 RMK A01 T02850118  RH  035%=      5-min Rain = 0
KCO2 101950Z 11004KT 29/12 A302 RMK A01 T02850117  RH  035%=      5-min Rain = 0
KCO2 101951Z 13005KT 29/12 A302 RMK A01 T02870120  RH  036%=      5-min Rain = 0
KCO2 101952Z 17004KT 29/12 A302 RMK A01 T02900115  RH  034%=      5-min Rain = 0
KCO2 101953Z 15002KT 29/11 A302 RMK A01 T02880113  RH  034%=      5-min Rain = 0
KCO2 101954Z 12002KT 29/11 A3019 RMK A01 T02870112  RH  034%=      5-min Rain = 0
KCO2 101955Z 09002KT 29/11 A3019 RMK A01 T02860113  RH  034%=      5-min Rain = 0
KCO2 101956Z 08003KT 29/12 A3019 RMK A01 T02850116  RH  035%=      5-min Rain = 0
KCO2 101957Z 09007G13KT 29/12 A3019 RMK A01 T02860117  RH  035%=      5-min Rain = 0
KCO2 101958Z 10012KT 29/12 A3019 RMK A01 T02880116  RH  035%=      5-min Rain = 0
KCO2 101959Z 11010KT 29/11 A3019 RMK A01 T02890113  RH  034%=      5-min Rain = 0
KCO2 102000Z 12006KT 29/11 A3019 RMK A01 T02890111  RH  033%=      5-min Rain = 0
KCO2 102001Z 11009KT 29/11 A3019 RMK A01 T02900112  RH  033%=      5-min Rain = 0
KCO2 102002Z 10006KT 29/11 A3019 RMK A01 T02900108  RH  032%=      5-min Rain = 0
KCO2 102003Z 10006KT 29/11 A3019 RMK A01 T02880109  RH  033%=      5-min Rain = 0
KCO2 102004Z 09008KT 29/11 A3019 RMK A01 T02880114  RH  034%=      5-min Rain = 0
KCO2 102005Z 11004KT 29/11 A3019 RMK A01 T02910108  RH  032%=      5-min Rain = 0
KCO2 102006Z 12007KT 29/11 A3019 RMK A01 T02910108  RH  032%=      5-min Rain = 0
KCO2 102007Z 13005KT 29/11 A3019 RMK A01 T02920111  RH  032%=      5-min Rain = 0
KCO2 102008Z 15004KT 29/11 A3019 RMK A01 T02920109  RH  032%=      5-min Rain = 0
KCO2 102009Z 18003KT 29/11 A3019 RMK A01 T02900109  RH  033%=      5-min Rain = 0
KCO2 102010Z 20002KT 29/10 A3019 RMK A01 T02880104  RH  032%=      5-min Rain = 0
KCO2 102011Z 00001KT 29/10 A3019 RMK A01 T02860104  RH  032%=      5-min Rain = 0
KCO2 102012Z 09004KT 29/11 A3019 RMK A01 T02860107  RH  033%=      5-min Rain = 0
KCO2 102013Z 10009KT 29/11 A3019 RMK A01 T02880109  RH  033%=      5-min Rain = 0
KCO2 102014Z 11010KT 29/11 A3019 RMK A01 T02920110  RH  032%=      5-min Rain = 0
KCO2 102015Z 11005KT 29/11 A3019 RMK A01 T02930107  RH  032%=      5-min Rain = 0
KCO2 102016Z 08005KT 29/11 A3019 RMK A01 T02930109  RH  032%=      5-min Rain = 0
KCO2 102017Z 07006KT 29/11 A3019 RMK A01 T02930108  RH  032%=      5-min Rain = 0
KCO2 102018Z 07004KT 29/11 A3019 RMK A01 T02910111  RH  033%=      5-min Rain = 0
KCO2 102019Z 06004KT 29/11 A3019 RMK A01 T02900112  RH  033%=      5-min Rain = 0
KCO2 102020Z 02003KT 29/11 A3018 RMK A01 T02880113  RH  034%=      5-min Rain = 0
KCO2 102021Z 35002KT 29/11 A3018 RMK A01 T02880112  RH  033%=      5-min Rain = 0
KCO2 102022Z 35001KT 29/11 A3018 RMK A01 T02890109  RH  033%=      5-min Rain = 0
KCO2 102023Z 13004KT 29/11 A3018 RMK A01 T02890109  RH  033%=      5-min Rain = 0
KCO2 102024Z 12004KT 29/11 A3018 RMK A01 T02900107  RH  032%=      5-min Rain = 0
KCO2 102025Z 14001KT 29/11 A3018 RMK A01 T02900108  RH  032%=      5-min Rain = 0
KCO2 102026Z 09004KT 29/11 A3018 RMK A01 T02890109  RH  033%=      5-min Rain = 0
KCO2 102027Z 08005KT 29/11 A3018 RMK A01 T02890111  RH  033%=      5-min Rain = 0
KCO2 102028Z 07003KT 29/11 A3018 RMK A01 T02890109  RH  033%=      5-min Rain = 0
KCO2 102029Z 10002KT 29/11 A3018 RMK A01 T02880110  RH  033%=      5-min Rain = 0
KCO2 102030Z 14002KT 29/11 A3018 RMK A01 T02870108  RH  033%=      5-min Rain = 0
KCO2 102031Z 19000KT 29/11 A3018 RMK A01 T02890106  RH  032%=      5-min Rain = 0
KCO2 102032Z 07000KT 29/11 A3018 RMK A01 T02900106  RH  032%=      5-min Rain = 0
KCO2 102033Z 07003KT 29/11 A3018 RMK A01 T02910106  RH  032%=      5-min Rain = 0
KCO2 102034Z 12008G13KT 29/11 A3018 RMK A01 T02920111  RH  033%=      5-min Rain = 0
KCO2 102035Z 13008KT 29/11 A3018 RMK A01 T02940110  RH  032%=      5-min Rain = 0
KCO2 102036Z 13007KT 29/11 A3018 RMK A01 T02930111  RH  032%=      5-min Rain = 0
KCO2 102037Z 14003KT 29/11 A3018 RMK A01 T02930110  RH  032%=      5-min Rain = 0
KCO2 102038Z 09005KT 29/11 A3018 RMK A01 T02940112  RH  032%=      5-min Rain = 0
KCO2 102039Z 08007KT 30/12 A3018 RMK A01 T02950115  RH  033%=      5-min Rain = 0
KCO2 102040Z 07007KT 30/11 A3018 RMK A01 T02950114  RH  033%=      5-min Rain = 0
KCO2 102041Z 06004KT 29/11 A3018 RMK A01 T02940110  RH  032%=      5-min Rain = 0
KCO2 102042Z 06003G8KT 29/11 A3018 RMK A01 T02920109  RH  032%=      5-min Rain = 0
KCO2 102043Z 07008KT 29/11 A3018 RMK A01 T02900110  RH  033%=      5-min Rain = 0
KCO2 102044Z 08009KT 29/11 A3017 RMK A01 T02900110  RH  033%=      5-min Rain = 0
KCO2 102045Z 08009KT 29/11 A3017 RMK A01 T02930113  RH  033%=      5-min Rain = 0
KCO2 102046Z 07008KT 29/11 A3017 RMK A01 T02940110  RH  032%=      5-min Rain = 0
KCO2 102047Z 07006KT 29/11 A3017 RMK A01 T02940112  RH  032%=      5-min Rain = 0
KCO2 102048Z 09007KT 30/11 A3017 RMK A01 T02950112  RH  032%=      5-min Rain = 0
KCO2 102049Z 08006KT 29/11 A3017 RMK A01 T02940109  RH  032%=      5-min Rain = 0
KCO2 102050Z 07006KT 29/11 A3017 RMK A01 T02920106  RH  032%=      5-min Rain = 0
KCO2 102051Z 09005KT 29/11 A3017 RMK A01 T02890110  RH  033%=      5-min Rain = 0
KCO2 102052Z 09005KT 29/11 A3017 RMK A01 T02880110  RH  033%=      5-min Rain = 0
KCO2 102053Z 08007KT 29/11 A3017 RMK A01 T02900107  RH  032%=      5-min Rain = 0
KCO2 102054Z 09007KT 29/11 A3017 RMK A01 T02900108  RH  032%=      5-min Rain = 0
KCO2 102055Z 06007KT 29/11 A3017 RMK A01 T02910109  RH  032%=      5-min Rain = 0
KCO2 102056Z 03007KT 29/11 A3017 RMK A01 T02920107  RH  032%=      5-min Rain = 0
KCO2 102057Z 02005KT 29/11 A3017 RMK A01 T02940105  RH  031%=      5-min Rain = 0
KCO2 102058Z 05010KT 30/11 A3017 RMK A01 T02950108  RH  031%=      5-min Rain = 0
KCO2 102059Z 06010KT 30/11 A3017 RMK A01 T02960108  RH  031%=      5-min Rain = 0
KCO2 102100Z 06007KT 30/11 A3017 RMK A01 T02950108  RH  031%=      5-min Rain = 0
KCO2 102101Z 07008KT 29/11 A3017 RMK A01 T02920107  RH  032%=      5-min Rain = 0
KCO2 102102Z 05008KT 29/11 A3017 RMK A01 T02910108  RH  032%=      5-min Rain = 0
KCO2 102103Z 06007KT 29/11 A3017 RMK A01 T02910107  RH  032%=      5-min Rain = 0
KCO2 102104Z 10007KT 29/11 A3017 RMK A01 T02920112  RH  033%=      5-min Rain = 0
KCO2 102105Z 09007KT 29/11 A3017 RMK A01 T02940111  RH  032%=      5-min Rain = 0
KCO2 102106Z 11002KT 29/11 A3017 RMK A01 T02940107  RH  031%=      5-min Rain = 0
KCO2 102107Z 10002KT 29/11 A3017 RMK A01 T02940108  RH  032%=      5-min Rain = 0
KCO2 102108Z 12003KT 29/11 A3017 RMK A01 T02930107  RH  031%=      5-min Rain = 0
KCO2 102109Z 11001KT 29/11 A3017 RMK A01 T02930108  RH  032%=      5-min Rain = 0
KCO2 102110Z 09001KT 30/11 A3017 RMK A01 T02950109  RH  032%=      5-min Rain = 0
KCO2 102111Z 22001KT 30/11 A3017 RMK A01 T02970108  RH  031%=      5-min Rain = 0
KCO2 102112Z 03006KT 30/11 A3017 RMK A01 T02980107  RH  031%=      5-min Rain = 0
KCO2 102113Z 08008KT 30/11 A3017 RMK A01 T02990105  RH  030%=      5-min Rain = 0
KCO2 102114Z 09006KT 30/11 A3017 RMK A01 T02970106  RH  031%=      5-min Rain = 0
KCO2 102115Z 08005KT 30/11 A3017 RMK A01 T02950105  RH  031%=      5-min Rain = 0
KCO2 102116Z 10008KT 29/11 A3017 RMK A01 T02940107  RH  031%=      5-min Rain = 0
KCO2 102117Z 08007KT 30/11 A3017 RMK A01 T02960107  RH  031%=      5-min Rain = 0
KCO2 102118Z 08008KT 30/11 A3017 RMK A01 T02970108  RH  031%=      5-min Rain = 0
KCO2 102119Z 07007KT 30/11 A3017 RMK A01 T02980107  RH  031%=      5-min Rain = 0
KCO2 102120Z 07006KT 30/11 A3017 RMK A01 T02970108  RH  031%=      5-min Rain = 0
KCO2 102121Z 09008KT 30/11 A3017 RMK A01 T02960109  RH  031%=      5-min Rain = 0
KCO2 102122Z 08006KT 30/11 A3017 RMK A01 T02960112  RH  032%=      5-min Rain = 0
KCO2 102123Z 09005KT 30/11 A3016 RMK A01 T02980112  RH  031%=      5-min Rain = 0
KCO2 102124Z 06004KT 30/11 A3016 RMK A01 T03000110  RH  031%=      5-min Rain = 0
KCO2 102125Z 10005KT 30/11 A3016 RMK A01 T03000108  RH  030%=      5-min Rain = 0
KCO2 102126Z 09004KT 30/11 A3016 RMK A01 T02990108  RH  031%=      5-min Rain = 0
KCO2 102127Z 06002KT 30/11 A3016 RMK A01 T02970106  RH  031%=      5-min Rain = 0
KCO2 102128Z 07004KT 30/11 A3016 RMK A01 T02970106  RH  031%=      5-min Rain = 0
KCO2 102129Z 06007KT 30/11 A3016 RMK A01 T02960108  RH  031%=      5-min Rain = 0
KCO2 102130Z 05004KT 30/11 A3016 RMK A01 T02960105  RH  031%=      5-min Rain = 0
KCO2 102131Z 05003KT 29/11 A3016 RMK A01 T02940105  RH  031%=      5-min Rain = 0
KCO2 102132Z 04003KT 29/11 A3016 RMK A01 T02940105  RH  031%=      5-min Rain = 0
KCO2 102133Z 07005KT 29/11 A3016 RMK A01 T02940105  RH  031%=      5-min Rain = 0
KCO2 102134Z 10005KT 30/10 A3016 RMK A01 T02950102  RH  030%=      5-min Rain = 0
KCO2 102135Z 11002KT 30/10 A3016 RMK A01 T02960101  RH  030%=      5-min Rain = 0
KCO2 102136Z 07002KT 30/10 A3016 RMK A01 T02960100  RH  030%=      5-min Rain = 0
KCO2 102137Z 11006KT 30/10 A3016 RMK A01 T02960104  RH  030%=      5-min Rain = 0
KCO2 102138Z 12009KT 30/10 A3016 RMK A01 T02980100  RH  029%=      5-min Rain = 0
KCO2 102139Z 12010KT 30/10 A3016 RMK A01 T03000097  RH  028%=      5-min Rain = 0
KCO2 102140Z 10008KT 30/10 A3016 RMK A01 T03000098  RH  028%=      5-min Rain = 0
KCO2 102141Z 12005KT 30/10 A3016 RMK A01 T03000097  RH  028%=      5-min Rain = 0
KCO2 102142Z 14006KT 30/09 A3016 RMK A01 T02990094  RH  028%=      5-min Rain = 0
KCO2 102143Z 19003KT 30/09 A3016 RMK A01 T02980089  RH  027%=      5-min Rain = 0
KCO2 102144Z 17007KT 30/09 A3016 RMK A01 T02970093  RH  028%=      5-min Rain = 0
KCO2 102145Z 15005KT 30/09 A3016 RMK A01 T02990094  RH  028%=      5-min Rain = 0
KCO2 102146Z 11003G9KT 30/10 A3016 RMK A01 T03000096  RH  028%=      5-min Rain = 0
KCO2 102147Z 10008KT 30/10 A3016 RMK A01 T03000097  RH  028%=      5-min Rain = 0
KCO2 102148Z 08009KT 30/10 A3016 RMK A01 T02990099  RH  029%=      5-min Rain = 0
KCO2 102149Z 08007KT 30/10 A3016 RMK A01 T02980099  RH  029%=      5-min Rain = 0
KCO2 102150Z 11007KT 30/10 A3016 RMK A01 T02980098  RH  029%=      5-min Rain = 0
KCO2 102151Z 11008KT 30/10 A3016 RMK A01 T02990100  RH  029%=      5-min Rain = 0
KCO2 102152Z 08007KT 30/10 A3016 RMK A01 T03000102  RH  029%=      5-min Rain = 0
KCO2 102153Z 09005KT 30/10 A3016 RMK A01 T03000100  RH  029%=      5-min Rain = 0
KCO2 102154Z 10004KT 30/10 A3016 RMK A01 T02970099  RH  029%=      5-min Rain = 0
KCO2 102155Z 08010KT 30/10 A3016 RMK A01 T02960100  RH  030%=      5-min Rain = 0
KCO2 102156Z 09005KT 30/09 A3016 RMK A01 T02960094  RH  028%=      5-min Rain = 0
KCO2 102157Z 08007KT 30/10 A3016 RMK A01 T02960099  RH  029%=      5-min Rain = 0
KCO2 102158Z 08007KT 30/10 A3016 RMK A01 T02960099  RH  029%=      5-min Rain = 0
KCO2 102159Z 09007KT 30/10 A3016 RMK A01 T02980103  RH  030%=      5-min Rain = 0
KCO2 102200Z 10007KT 30/10 A3016 RMK A01 T03000103  RH  030%=      5-min Rain = 0
KCO2 102201Z 12008KT 30/10 A3016 RMK A01 T03010100  RH  029%=      5-min Rain = 0
KCO2 102202Z 11006KT 30/10 A3016 RMK A01 T03010101  RH  029%=      5-min Rain = 0
KCO2 102203Z 11004KT 30/10 A3016 RMK A01 T03000099  RH  029%=      5-min Rain = 0
KCO2 102204Z 11008KT 30/10 A3015 RMK A01 T02990100  RH  029%=      5-min Rain = 0
KCO2 102205Z 11008KT 30/10 A3015 RMK A01 T02990100  RH  029%=      5-min Rain = 0
KCO2 102206Z 12006KT 30/10 A3015 RMK A01 T02980097  RH  029%=      5-min Rain = 0
KCO2 102207Z 09005KT 30/10 A3015 RMK A01 T02970104  RH  030%=      5-min Rain = 0
KCO2 102208Z 12005KT 30/11 A3015 RMK A01 T03000105  RH  030%=      5-min Rain = 0
KCO2 102209Z 10003KT 30/10 A3015 RMK A01 T03010104  RH  029%=      5-min Rain = 0
KCO2 102210Z 07002KT 30/10 A3015 RMK A01 T03010103  RH  029%=      5-min Rain = 0
KCO2 102211Z 07003KT 30/10 A3015 RMK A01 T03010103  RH  029%=      5-min Rain = 0
KCO2 102212Z 09003KT 30/10 A3015 RMK A01 T03000102  RH  029%=      5-min Rain = 0
KCO2 102213Z 06003KT 30/10 A3015 RMK A01 T02990102  RH  030%=      5-min Rain = 0
KCO2 102214Z 03005KT 30/11 A3015 RMK A01 T02980105  RH  030%=      5-min Rain = 0
KCO2 102215Z 05008KT 30/11 A3015 RMK A01 T03000108  RH  030%=      5-min Rain = 0
KCO2 102216Z 05007KT 30/10 A3015 RMK A01 T03020101  RH  029%=      5-min Rain = 0
KCO2 102217Z 05008KT 30/10 A3015 RMK A01 T03010101  RH  029%=      5-min Rain = 0
KCO2 102218Z 06006KT 30/10 A3015 RMK A01 T02980099  RH  029%=      5-min Rain = 0
KCO2 102219Z 05004KT 30/10 A3015 RMK A01 T02960097  RH  029%=      5-min Rain = 0
KCO2 102220Z 03003KT 30/10 A3015 RMK A01 T02950099  RH  030%=      5-min Rain = 0
KCO2 102221Z 01004KT 30/10 A3015 RMK A01 T02950099  RH  030%=      5-min Rain = 0
KCO2 102222Z 00004KT 30/10 A3015 RMK A01 T02950101  RH  030%=      5-min Rain = 0
KCO2 102223Z 02005KT 30/10 A3015 RMK A01 T02970103  RH  030%=      5-min Rain = 0
KCO2 102224Z 03004KT 30/10 A3015 RMK A01 T02970102  RH  030%=      5-min Rain = 0
KCO2 102225Z 06004KT 30/11 A3015 RMK A01 T02980105  RH  030%=      5-min Rain = 0
KCO2 102226Z 08009KT 30/11 A3015 RMK A01 T02990105  RH  030%=      5-min Rain = 0
KCO2 102227Z 07009KT 30/10 A3015 RMK A01 T02990102  RH  030%=      5-min Rain = 0
KCO2 102228Z 08008KT 30/10 A3015 RMK A01 T02960102  RH  030%=      5-min Rain = 0
KCO2 102229Z 10007KT 30/11 A3015 RMK A01 T02950106  RH  031%=      5-min Rain = 0
KCO2 102230Z 10006KT 30/11 A3015 RMK A01 T02960105  RH  031%=      5-min Rain = 0
KCO2 102231Z 10007KT 30/11 A3015 RMK A01 T02960109  RH  031%=      5-min Rain = 0
KCO2 102232Z 10006KT 30/11 A3015 RMK A01 T02970107  RH  031%=      5-min Rain = 0
KCO2 102233Z 11006KT 30/11 A3015 RMK A01 T02980108  RH  031%=      5-min Rain = 0
KCO2 102234Z 10005KT 30/11 A3015 RMK A01 T02980106  RH  031%=      5-min Rain = 0
KCO2 102235Z 09008KT 30/11 A3015 RMK A01 T02980111  RH  031%=      5-min Rain = 0
KCO2 102236Z 08007KT 30/11 A3015 RMK A01 T02980108  RH  031%=      5-min Rain = 0
KCO2 102237Z 08005KT 30/11 A3015 RMK A01 T02970107  RH  031%=      5-min Rain = 0
KCO2 102238Z 10006KT 30/11 A3015 RMK A01 T02960107  RH  031%=      5-min Rain = 0
KCO2 102239Z 10007KT 30/11 A3015 RMK A01 T02970108  RH  031%=      5-min Rain = 0
KCO2 102240Z 09009KT 30/11 A3015 RMK A01 T02980105  RH  030%=      5-min Rain = 0
KCO2 102241Z 11006KT 30/11 A3015 RMK A01 T02980106  RH  031%=      5-min Rain = 0
KCO2 102242Z 11007KT 30/11 A3015 RMK A01 T02970108  RH  031%=      5-min Rain = 0
KCO2 102243Z 10006KT 30/11 A3015 RMK A01 T02960108  RH  031%=      5-min Rain = 0
KCO2 102244Z 09005KT 30/11 A3015 RMK A01 T02970110  RH  031%=      5-min Rain = 0
KCO2 102245Z 08006KT 30/10 A3015 RMK A01 T02970104  RH  030%=      5-min Rain = 0
KCO2 102246Z 08004KT 30/11 A3015 RMK A01 T02960105  RH  031%=      5-min Rain = 0
KCO2 102247Z 10001KT 30/10 A3015 RMK A01 T02950104  RH  031%=      5-min Rain = 0
KCO2 102248Z 09002KT 30/10 A3015 RMK A01 T02950103  RH  030%=      5-min Rain = 0
KCO2 102249Z 11002KT 30/11 A3015 RMK A01 T02950105  RH  031%=      5-min Rain = 0
KCO2 102250Z 06005KT 30/11 A3015 RMK A01 T02970107  RH  031%=      5-min Rain = 0
KCO2 102251Z 09007KT 30/11 A3015 RMK A01 T02980107  RH  031%=      5-min Rain = 0
KCO2 102252Z 09004KT 30/11 A3015 RMK A01 T02980105  RH  030%=      5-min Rain = 0
KCO2 102253Z 10002KT 30/10 A3015 RMK A01 T02960101  RH  030%=      5-min Rain = 0
KCO2 102254Z 08002KT 30/10 A3015 RMK A01 T02950102  RH  030%=      5-min Rain = 0
KCO2 102255Z 09006KT 29/11 A3015 RMK A01 T02940105  RH  031%=      5-min Rain = 0
KCO2 102256Z 07006KT 30/10 A3015 RMK A01 T02950103  RH  030%=      5-min Rain = 0
KCO2 102257Z 06005KT 29/10 A3015 RMK A01 T02940102  RH  030%=      5-min Rain = 0
KCO2 102258Z 06003KT 29/10 A3015 RMK A01 T02940104  RH  031%=      5-min Rain = 0
KCO2 102259Z 06002KT 30/10 A3015 RMK A01 T02950103  RH  030%=      5-min Rain = 0
KCO2 102300Z 09006KT 30/10 A3015 RMK A01 T02950104  RH  031%=      5-min Rain = 0
KCO2 102301Z 09004KT 29/10 A3015 RMK A01 T02940103  RH  030%=      5-min Rain = 0
KCO2 102302Z 08002KT 30/10 A3015 RMK A01 T02950104  RH  031%=      5-min Rain = 0
KCO2 102303Z 06004KT 30/11 A3015 RMK A01 T02950105  RH  031%=      5-min Rain = 0
KCO2 102304Z 07005KT 30/11 A3015 RMK A01 T02950107  RH  031%=      5-min Rain = 0
KCO2 102305Z 08007KT 30/10 A3015 RMK A01 T02960104  RH  030%=      5-min Rain = 0
KCO2 102306Z 08003KT 30/11 A3015 RMK A01 T02960105  RH  030%=      5-min Rain = 0
KCO2 102307Z 07002KT 30/10 A3015 RMK A01 T02950104  RH  031%=      5-min Rain = 0
KCO2 102308Z 08005KT 30/11 A3015 RMK A01 T02950107  RH  031%=      5-min Rain = 0
KCO2 102309Z 10008KT 30/11 A3015 RMK A01 T02960107  RH  031%=      5-min Rain = 0
KCO2 102310Z 09008KT 30/11 A3015 RMK A01 T02960106  RH  031%=      5-min Rain = 0
KCO2 102311Z 09007KT 30/11 A3015 RMK A01 T02960106  RH  031%=      5-min Rain = 0
KCO2 102312Z 10009KT 30/10 A3015 RMK A01 T02950104  RH  030%=      5-min Rain = 0
KCO2 102313Z 10006KT 30/10 A3015 RMK A01 T02950102  RH  030%=      5-min Rain = 0
KCO2 102314Z 11005KT 29/11 A3015 RMK A01 T02940105  RH  031%=      5-min Rain = 0
KCO2 102315Z 11006KT 29/11 A3015 RMK A01 T02930106  RH  031%=      5-min Rain = 0
KCO2 102316Z 09006KT 29/10 A3015 RMK A01 T02930104  RH  031%=      5-min Rain = 0
KCO2 102317Z 07005KT 29/10 A3015 RMK A01 T02930103  RH  031%=      5-min Rain = 0
KCO2 102318Z 07006KT 29/10 A3015 RMK A01 T02940104  RH  031%=      5-min Rain = 0
KCO2 102319Z 10008KT 30/10 A3015 RMK A01 T02950102  RH  030%=      5-min Rain = 0
KCO2 102320Z 10008KT 30/10 A3015 RMK A01 T02950101  RH  030%=      5-min Rain = 0
KCO2 102321Z 09006KT 29/10 A3015 RMK A01 T02940101  RH  030%=      5-min Rain = 0
KCO2 102322Z 10005KT 29/10 A3015 RMK A01 T02930101  RH  030%=      5-min Rain = 0
KCO2 102323Z 09006KT 29/10 A3015 RMK A01 T02930102  RH  030%=      5-min Rain = 0
KCO2 102324Z 09005KT 29/10 A3015 RMK A01 T02930100  RH  030%=      5-min Rain = 0
KCO2 102325Z 08005KT 29/10 A3015 RMK A01 T02930100  RH  030%=      5-min Rain = 0
KCO2 102326Z 07006KT 29/10 A3015 RMK A01 T02940100  RH  030%=      5-min Rain = 0
KCO2 102327Z 08007KT 29/10 A3015 RMK A01 T02940100  RH  030%=      5-min Rain = 0
KCO2 102328Z 07007KT 29/10 A3015 RMK A01 T02940101  RH  030%=      5-min Rain = 0
KCO2 102329Z 08007KT 29/10 A3015 RMK A01 T02940100  RH  030%=      5-min Rain = 0
KCO2 102330Z 08006KT 29/10 A3015 RMK A01 T02930097  RH  030%=      5-min Rain = 0
KCO2 102331Z 08005KT 29/10 A3015 RMK A01 T02920098  RH  030%=      5-min Rain = 0
KCO2 102332Z 07005KT 29/10 A3015 RMK A01 T02910101  RH  031%=      5-min Rain = 0
KCO2 102333Z 05005KT 29/10 A3015 RMK A01 T02920099  RH  030%=      5-min Rain = 0
KCO2 102334Z 06006KT 29/10 A3015 RMK A01 T02920100  RH  030%=      5-min Rain = 0
KCO2 102335Z 05007KT 29/10 A3015 RMK A01 T02920096  RH  029%=      5-min Rain = 0
KCO2 102336Z 05007KT 29/10 A3015 RMK A01 T02920096  RH  030%=      5-min Rain = 0
KCO2 102337Z 09008KT 29/10 A3015 RMK A01 T02920098  RH  030%=      5-min Rain = 0
KCO2 102338Z 10008KT 29/10 A3015 RMK A01 T02920100  RH  030%=      5-min Rain = 0
KCO2 102339Z 11008KT 29/10 A3015 RMK A01 T02920100  RH  030%=      5-min Rain = 0
KCO2 102340Z 10007KT 29/10 A3015 RMK A01 T02910102  RH  031%=      5-min Rain = 0
KCO2 102341Z 09008KT 29/10 A3015 RMK A01 T02920099  RH  030%=      5-min Rain = 0
KCO2 102342Z 09006KT 29/10 A3015 RMK A01 T02910097  RH  030%=      5-min Rain = 0
KCO2 102343Z 08006KT 29/10 A3015 RMK A01 T02910099  RH  030%=      5-min Rain = 0
KCO2 102344Z 07006KT 29/10 A3015 RMK A01 T02910098  RH  030%=      5-min Rain = 0
KCO2 102345Z 06006KT 29/10 A3015 RMK A01 T02910097  RH  030%=      5-min Rain = 0
KCO2 102346Z 07007KT 29/10 A3015 RMK A01 T02910095  RH  030%=      5-min Rain = 0
KCO2 102347Z 07006KT 29/10 A3015 RMK A01 T02910095  RH  029%=      5-min Rain = 0
KCO2 102348Z 06007KT 29/10 A3015 RMK A01 T02910095  RH  029%=      5-min Rain = 0
KCO2 102349Z 06005KT 29/09 A3015 RMK A01 T02910094  RH  029%=      5-min Rain = 0
KCO2 102350Z 05004KT 29/10 A3015 RMK A01 T02900095  RH  029%=      5-min Rain = 0
KCO2 102351Z 06006KT 29/10 A3015 RMK A01 T02900095  RH  030%=      5-min Rain = 0
KCO2 102352Z 06005KT 29/10 A3015 RMK A01 T02900095  RH  030%=      5-min Rain = 0
KCO2 102353Z 08007KT 29/10 A3015 RMK A01 T02900097  RH  030%=      5-min Rain = 0
KCO2 102354Z 08008KT 29/10 A3015 RMK A01 T02900097  RH  030%=      5-min Rain = 0
KCO2 102355Z 07008KT 29/10 A3015 RMK A01 T02890096  RH  030%=      5-min Rain = 0
KCO2 102356Z 08007KT 29/10 A3015 RMK A01 T02880095  RH  030%=      5-min Rain = 0
KCO2 102357Z 07005KT 29/10 A3015 RMK A01 T02880097  RH  030%=      5-min Rain = 0
KCO2 102358Z 08004KT 29/10 A3015 RMK A01 T02880096  RH  030%=      5-min Rain = 0
KCO2 102359Z 08005KT 29/10 A3015 RMK A01 T02880099  RH  031%=      5-min Rain = 0
KCO2 110000Z 08006KT 29/10 A3015 RMK A01 T02880099  RH  031%=      5-min Rain = 0
KCO2 110001Z 06006KT 29/10 A3015 RMK A01 T02880098  RH  031%=      5-min Rain = 0
KCO2 110002Z 07009KT 29/10 A3015 RMK A01 T02880098  RH  031%=      5-min Rain = 0
KCO2 110003Z 08009KT 29/10 A3015 RMK A01 T02870097  RH  031%=      5-min Rain = 0
KCO2 110004Z 08007KT 29/10 A3015 RMK A01 T02860096  RH  030%=      5-min Rain = 0
KCO2 110005Z 08008KT 29/10 A3015 RMK A01 T02860096  RH  031%=      5-min Rain = 0
KCO2 110006Z 07009KT 29/10 A3015 RMK A01 T02850097  RH  031%=      5-min Rain = 0
KCO2 110007Z 07008KT 29/10 A3015 RMK A01 T02850096  RH  031%=      5-min Rain = 0
KCO2 110008Z 07009KT 29/10 A3015 RMK A01 T02850097  RH  031%=      5-min Rain = 0
KCO2 110009Z 07009KT 28/10 A3015 RMK A01 T02840095  RH  031%=      5-min Rain = 0
KCO2 110010Z 07007KT 28/10 A3015 RMK A01 T02840097  RH  031%=      5-min Rain = 0
KCO2 110011Z 07009KT 28/10 A3015 RMK A01 T02840098  RH  031%=      5-min Rain = 0
KCO2 110012Z 07009KT 28/10 A3015 RMK A01 T02830098  RH  031%=      5-min Rain = 0
KCO2 110013Z 07010KT 28/10 A3015 RMK A01 T02830098  RH  031%=      5-min Rain = 0
KCO2 110014Z 06007KT 28/10 A3015 RMK A01 T02820098  RH  032%=      5-min Rain = 0
KCO2 110015Z 07007KT 28/10 A3015 RMK A01 T02820099  RH  032%=      5-min Rain = 0
KCO2 110016Z 07007KT 28/10 A3015 RMK A01 T02810099  RH  032%=      5-min Rain = 0
KCO2 110017Z 07007KT 28/10 A3015 RMK A01 T02810100  RH  032%=      5-min Rain = 0
KCO2 110018Z 07007KT 28/10 A3015 RMK A01 T02800101  RH  033%=      5-min Rain = 0
KCO2 110019Z 07006KT 28/10 A3015 RMK A01 T02800101  RH  033%=      5-min Rain = 0
KCO2 110020Z 07006KT 28/10 A3015 RMK A01 T02790102  RH  033%=      5-min Rain = 0
KCO2 110021Z 07008KT 28/10 A3015 RMK A01 T02790101  RH  033%=      5-min Rain = 0
KCO2 110022Z 07008KT 28/10 A3015 RMK A01 T02780100  RH  033%=      5-min Rain = 0
KCO2 110023Z 07008KT 28/10 A3015 RMK A01 T02780100  RH  033%=      5-min Rain = 0
KCO2 110024Z 07007KT 28/10 A3015 RMK A01 T02770100  RH  033%=      5-min Rain = 0
KCO2 110025Z 08006KT 28/10 A3015 RMK A01 T02770100  RH  033%=      5-min Rain = 0
KCO2 110026Z 08008KT 28/10 A3015 RMK A01 T02760100  RH  033%=      5-min Rain = 0
KCO2 110027Z 08008KT 28/10 A3015 RMK A01 T02750100  RH  033%=      5-min Rain = 0
KCO2 110028Z 07008KT 28/10 A3015 RMK A01 T02750100  RH  033%=      5-min Rain = 0
KCO2 110029Z 08008KT 27/10 A3015 RMK A01 T02740100  RH  034%=      5-min Rain = 0
KCO2 110030Z 07007KT 27/10 A3015 RMK A01 T02740100  RH  034%=      5-min Rain = 0
KCO2 110031Z 07009KT 27/10 A3015 RMK A01 T02730100  RH  034%=      5-min Rain = 0
KCO2 110032Z 07008KT 27/10 A3015 RMK A01 T02730100  RH  034%=      5-min Rain = 0
KCO2 110033Z 07008KT 27/10 A3015 RMK A01 T02730102  RH  034%=      5-min Rain = 0
KCO2 110034Z 07009KT 27/10 A3015 RMK A01 T02720102  RH  034%=      5-min Rain = 0
KCO2 110035Z 07007KT 27/10 A3015 RMK A01 T02710102  RH  035%=      5-min Rain = 0
KCO2 110036Z 07007KT 27/10 A3015 RMK A01 T02710103  RH  035%=      5-min Rain = 0
KCO2 110037Z 07007KT 27/10 A3015 RMK A01 T02700103  RH  035%=      5-min Rain = 0
KCO2 110038Z 07007KT 27/10 A3015 RMK A01 T02690103  RH  035%=      5-min Rain = 0
KCO2 110039Z 07007KT 27/10 A3015 RMK A01 T02690104  RH  036%=      5-min Rain = 0
KCO2 110040Z 07007KT 27/10 A3015 RMK A01 T02680104  RH  036%=      5-min Rain = 0
KCO2 110041Z 07007KT 27/10 A3016 RMK A01 T02670104  RH  036%=      5-min Rain = 0
KCO2 110042Z 07006KT 27/10 A3016 RMK A01 T02660104  RH  036%=      5-min Rain = 0
KCO2 110043Z 07006KT 27/11 A3016 RMK A01 T02650105  RH  036%=      5-min Rain = 0
KCO2 110044Z 07006KT 26/11 A3016 RMK A01 T02640105  RH  037%=      5-min Rain = 0
KCO2 110045Z 07007KT 26/11 A3016 RMK A01 T02630105  RH  037%=      5-min Rain = 0
KCO2 110046Z 07007KT 26/11 A3016 RMK A01 T02620105  RH  037%=      5-min Rain = 0
KCO2 110047Z 07007KT 26/11 A3016 RMK A01 T02620105  RH  037%=      5-min Rain = 0
KCO2 110048Z 07007KT 26/11 A3016 RMK A01 T02610106  RH  038%=      5-min Rain = 0
KCO2 110049Z 07007KT 26/11 A3015 RMK A01 T02600106  RH  038%=      5-min Rain = 0
KCO2 110050Z 07007KT 26/11 A3015 RMK A01 T02590106  RH  038%=      5-min Rain = 0
KCO2 110051Z 08007KT 26/11 A3015 RMK A01 T02590106  RH  038%=      5-min Rain = 0
KCO2 110052Z 07007KT 26/11 A3015 RMK A01 T02590107  RH  038%=      5-min Rain = 0
KCO2 110053Z 07007KT 26/11 A3015 RMK A01 T02580107  RH  039%=      5-min Rain = 0
KCO2 110054Z 07007KT 26/11 A3015 RMK A01 T02580107  RH  039%=      5-min Rain = 0
KCO2 110055Z 07007KT 26/11 A3015 RMK A01 T02570107  RH  039%=      5-min Rain = 0
KCO2 110056Z 07006KT 26/11 A3015 RMK A01 T02560107  RH  039%=      5-min Rain = 0
KCO2 110057Z 08007KT 26/11 A3015 RMK A01 T02560108  RH  039%=      5-min Rain = 0
KCO2 110058Z 08006KT 25/11 A3015 RMK A01 T02540107  RH  040%=      5-min Rain = 0
KCO2 110059Z 08006KT 25/11 A3015 RMK A01 T02540108  RH  040%=      5-min Rain = 0
KCO2 110100Z 07007KT 25/11 A3015 RMK A01 T02520107  RH  040%=      5-min Rain = 0
KCO2 110101Z 08007KT 25/11 A3015 RMK A01 T02510107  RH  040%=      5-min Rain = 0
KCO2 110102Z 08007KT 25/11 A3016 RMK A01 T02510107  RH  041%=      5-min Rain = 0
KCO2 110103Z 08006KT 25/11 A3016 RMK A01 T02500108  RH  041%=      5-min Rain = 0
KCO2 110104Z 07006KT 25/11 A3016 RMK A01 T02490107  RH  041%=      5-min Rain = 0
KCO2 110105Z 08006KT 25/11 A3016 RMK A01 T02480107  RH  041%=      5-min Rain = 0
KCO2 110106Z 08007KT 25/11 A3016 RMK A01 T02470107  RH  041%=      5-min Rain = 0
KCO2 110107Z 08007KT 25/11 A3016 RMK A01 T02460107  RH  042%=      5-min Rain = 0
KCO2 110108Z 08007KT 25/11 A3016 RMK A01 T02450107  RH  042%=      5-min Rain = 0
KCO2 110109Z 08007KT 24/11 A3016 RMK A01 T02440107  RH  042%=      5-min Rain = 0
KCO2 110110Z 08007KT 24/11 A3016 RMK A01 T02440107  RH  042%=      5-min Rain = 0
KCO2 110111Z 08007KT 24/11 A3016 RMK A01 T02430108  RH  042%=      5-min Rain = 0
KCO2 110112Z 08007KT 24/11 A3015 RMK A01 T02420107  RH  043%=      5-min Rain = 0
KCO2 110113Z 08007KT 24/11 A3015 RMK A01 T02420107  RH  043%=      5-min Rain = 0
KCO2 110114Z 08007KT 24/11 A3015 RMK A01 T02420108  RH  043%=      5-min Rain = 0
KCO2 110115Z 08007KT 24/11 A3015 RMK A01 T02410108  RH  043%=      5-min Rain = 0
KCO2 110116Z 08007KT 24/11 A3015 RMK A01 T02400107  RH  043%=      5-min Rain = 0
KCO2 110117Z 08007KT 24/11 A3015 RMK A01 T02400108  RH  043%=      5-min Rain = 0
KCO2 110118Z 08007KT 24/11 A3015 RMK A01 T02390108  RH  044%=      5-min Rain = 0
KCO2 110119Z 08007KT 24/11 A3015 RMK A01 T02380108  RH  044%=      5-min Rain = 0
KCO2 110120Z 08007KT 24/11 A3015 RMK A01 T02380108  RH  044%=      5-min Rain = 0
KCO2 110121Z 08007KT 24/11 A3015 RMK A01 T02370108  RH  044%=      5-min Rain = 0
KCO2 110122Z 08007KT 24/11 A3015 RMK A01 T02360108  RH  044%=      5-min Rain = 0
KCO2 110123Z 08007KT 24/11 A3015 RMK A01 T02350108  RH  045%=      5-min Rain = 0
KCO2 110124Z 08007KT 23/11 A3015 RMK A01 T02340108  RH  045%=      5-min Rain = 0
KCO2 110125Z 08007KT 23/11 A3016 RMK A01 T02340108  RH  045%=      5-min Rain = 0
KCO2 110126Z 08007KT 23/11 A3016 RMK A01 T02330108  RH  045%=      5-min Rain = 0
KCO2 110127Z 08007KT 23/11 A3016 RMK A01 T02320108  RH  046%=      5-min Rain = 0
KCO2 110128Z 08007KT 23/11 A3016 RMK A01 T02320108  RH  046%=      5-min Rain = 0
KCO2 110129Z 08007KT 23/11 A3016 RMK A01 T02310108  RH  046%=      5-min Rain = 0
KCO2 110130Z 07007KT 23/11 A3016 RMK A01 T02310108  RH  046%=      5-min Rain = 0
KCO2 110131Z 07007KT 23/11 A3016 RMK A01 T02310108  RH  046%=      5-min Rain = 0
KCO2 110132Z 07007KT 23/11 A3016 RMK A01 T02310109  RH  046%=      5-min Rain = 0
KCO2 110133Z 08007KT 23/11 A3016 RMK A01 T02300109  RH  046%=      5-min Rain = 0
KCO2 110134Z 08007KT 23/11 A3016 RMK A01 T02280109  RH  047%=      5-min Rain = 0
KCO2 110135Z 08007KT 23/11 A3016 RMK A01 T02280109  RH  047%=      5-min Rain = 0
KCO2 110136Z 08007KT 23/11 A3016 RMK A01 T02270109  RH  047%=      5-min Rain = 0
KCO2 110137Z 08007KT 23/11 A3016 RMK A01 T02260109  RH  047%=      5-min Rain = 0
KCO2 110138Z 08007KT 23/11 A3016 RMK A01 T02260110  RH  048%=      5-min Rain = 0
KCO2 110139Z 08007KT 23/11 A3016 RMK A01 T02260109  RH  048%=      5-min Rain = 0
KCO2 110140Z 08007KT 23/11 A3016 RMK A01 T02260109  RH  048%=      5-min Rain = 0
KCO2 110141Z 08007KT 23/11 A3016 RMK A01 T02260109  RH  047%=      5-min Rain = 0
KCO2 110142Z 08007KT 23/11 A3016 RMK A01 T02270109  RH  047%=      5-min Rain = 0
KCO2 110143Z 08007KT 23/11 A3016 RMK A01 T02270109  RH  047%=      5-min Rain = 0
KCO2 110144Z 08007KT 23/11 A3016 RMK A01 T02270109  RH  047%=      5-min Rain = 0
KCO2 110145Z 08007KT 23/11 A3016 RMK A01 T02270108  RH  047%=      5-min Rain = 0
KCO2 110146Z 08007KT 23/11 A3016 RMK A01 T02270108  RH  047%=      5-min Rain = 0
KCO2 110147Z 08007KT 23/11 A3016 RMK A01 T02270108  RH  047%=      5-min Rain = 0
KCO2 110148Z 08007KT 23/11 A3016 RMK A01 T02270108  RH  047%=      5-min Rain = 0
KCO2 110149Z 08007KT 23/11 A3016 RMK A01 T02270109  RH  047%=      5-min Rain = 0
KCO2 110150Z 08007KT 23/11 A3016 RMK A01 T02260109  RH  047%=      5-min Rain = 0
KCO2 110151Z 08007KT 23/11 A3016 RMK A01 T02250109  RH  048%=      5-min Rain = 0
KCO2 110152Z 08007KT 22/11 A3016 RMK A01 T02240110  RH  048%=      5-min Rain = 0
KCO2 110153Z 09007KT 22/11 A3016 RMK A01 T02230110  RH  049%=      5-min Rain = 0
KCO2 110154Z 09007KT 22/11 A3016 RMK A01 T02220110  RH  049%=      5-min Rain = 0
KCO2 110155Z 09007KT 22/11 A3016 RMK A01 T02220110  RH  049%=      5-min Rain = 0
KCO2 110156Z 09006KT 22/11 A3016 RMK A01 T02220110  RH  049%=      5-min Rain = 0
KCO2 110157Z 09006KT 22/11 A3016 RMK A01 T02230109  RH  049%=      5-min Rain = 0
KCO2 110158Z 09006KT 22/11 A3016 RMK A01 T02230109  RH  048%=      5-min Rain = 0
KCO2 110159Z 09006KT 22/11 A3016 RMK A01 T02230109  RH  048%=      5-min Rain = 0
KCO2 110200Z 08006KT 22/11 A3016 RMK A01 T02230109  RH  048%=      5-min Rain = 0
KCO2 110201Z 08006KT 22/11 A3016 RMK A01 T02220109  RH  049%=      5-min Rain = 0
KCO2 110202Z 08006KT 22/11 A3016 RMK A01 T02210110  RH  049%=      5-min Rain = 0
KCO2 110203Z 09006KT 22/11 A3016 RMK A01 T02190110  RH  050%=      5-min Rain = 0
KCO2 110204Z 09006KT 22/11 A3016 RMK A01 T02180110  RH  050%=      5-min Rain = 0
KCO2 110205Z 08006KT 22/11 A3016 RMK A01 T02170110  RH  050%=      5-min Rain = 0
KCO2 110206Z 08006KT 22/11 A3016 RMK A01 T02170110  RH  051%=      5-min Rain = 0
KCO2 110207Z 08006KT 22/11 A3016 RMK A01 T02160110  RH  051%=      5-min Rain = 0
KCO2 110208Z 08006KT 22/11 A3017 RMK A01 T02150110  RH  051%=      5-min Rain = 0
KCO2 110209Z 08006KT 22/11 A3017 RMK A01 T02150110  RH  051%=      5-min Rain = 0
KCO2 110210Z 08006KT 21/11 A3017 RMK A01 T02140110  RH  052%=      5-min Rain = 0
KCO2 110211Z 08006KT 21/11 A3017 RMK A01 T02130110  RH  052%=      5-min Rain = 0
KCO2 110212Z 08006KT 21/11 A3017 RMK A01 T02120110  RH  052%=      5-min Rain = 0
KCO2 110213Z 08006KT 21/11 A3017 RMK A01 T02110110  RH  052%=      5-min Rain = 0
KCO2 110214Z 08006KT 21/11 A3017 RMK A01 T02110110  RH  052%=      5-min Rain = 0
KCO2 110215Z 08006KT 21/11 A3017 RMK A01 T02110110  RH  053%=      5-min Rain = 0
KCO2 110216Z 08006KT 21/11 A3017 RMK A01 T02100110  RH  053%=      5-min Rain = 0
KCO2 110217Z 08006KT 21/11 A3017 RMK A01 T02100110  RH  053%=      5-min Rain = 0
KCO2 110218Z 08006KT 21/11 A3017 RMK A01 T02100110  RH  053%=      5-min Rain = 0
KCO2 110219Z 08006KT 21/11 A3017 RMK A01 T02100110  RH  053%=      5-min Rain = 0
KCO2 110220Z 08007KT 21/11 A3017 RMK A01 T02100110  RH  053%=      5-min Rain = 0
KCO2 110221Z 08007KT 21/11 A3017 RMK A01 T02100109  RH  052%=      5-min Rain = 0
KCO2 110222Z 08007KT 21/11 A3017 RMK A01 T02090109  RH  052%=      5-min Rain = 0
KCO2 110223Z 08007KT 21/11 A3017 RMK A01 T02090109  RH  053%=      5-min Rain = 0
KCO2 110224Z 08007KT 21/11 A3017 RMK A01 T02090109  RH  053%=      5-min Rain = 0
KCO2 110225Z 08007KT 21/11 A3017 RMK A01 T02080109  RH  053%=      5-min Rain = 0
KCO2 110226Z 08007KT 21/11 A3017 RMK A01 T02080108  RH  053%=      5-min Rain = 0
KCO2 110227Z 09007KT 21/11 A3017 RMK A01 T02080108  RH  053%=      5-min Rain = 0
KCO2 110228Z 08006KT 21/11 A3017 RMK A01 T02080108  RH  053%=      5-min Rain = 0
KCO2 110229Z 08006KT 21/11 A3017 RMK A01 T02080108  RH  053%=      5-min Rain = 0
KCO2 110230Z 08006KT 21/11 A3017 RMK A01 T02080108  RH  053%=      5-min Rain = 0
KCO2 110231Z 08007KT 21/11 A3018 RMK A01 T02070108  RH  053%=      5-min Rain = 0
KCO2 110232Z 08006KT 21/11 A3018 RMK A01 T02070108  RH  053%=      5-min Rain = 0
KCO2 110233Z 08006KT 21/11 A3018 RMK A01 T02070107  RH  053%=      5-min Rain = 0
KCO2 110234Z 08006KT 21/11 A3018 RMK A01 T02070107  RH  053%=      5-min Rain = 0
KCO2 110235Z 08006KT 21/11 A3018 RMK A01 T02070107  RH  053%=      5-min Rain = 0
KCO2 110236Z 08006KT 21/11 A3018 RMK A01 T02060107  RH  053%=      5-min Rain = 0
KCO2 110237Z 08006KT 21/11 A3018 RMK A01 T02060107  RH  053%=      5-min Rain = 0
KCO2 110238Z 08006KT 21/11 A3018 RMK A01 T02050107  RH  053%=      5-min Rain = 0
KCO2 110239Z 08006KT 21/11 A3018 RMK A01 T02060107  RH  053%=      5-min Rain = 0
KCO2 110240Z 08006KT 21/11 A3018 RMK A01 T02050107  RH  053%=      5-min Rain = 0
KCO2 110241Z 08006KT 21/11 A3018 RMK A01 T02050106  RH  053%=      5-min Rain = 0
KCO2 110242Z 08006KT 21/11 A3018 RMK A01 T02050106  RH  053%=      5-min Rain = 0
KCO2 110243Z 08006KT 21/11 A3018 RMK A01 T02050106  RH  053%=      5-min Rain = 0
KCO2 110244Z 08006KT 21/11 A3018 RMK A01 T02050106  RH  053%=      5-min Rain = 0
KCO2 110245Z 08006KT 20/11 A3018 RMK A01 T02040106  RH  053%=      5-min Rain = 0
KCO2 110246Z 08006KT 20/11 A3018 RMK A01 T02040106  RH  053%=      5-min Rain = 0
KCO2 110247Z 08006KT 20/11 A3018 RMK A01 T02040106  RH  053%=      5-min Rain = 0
KCO2 110248Z 08006KT 20/11 A3018 RMK A01 T02040106  RH  053%=      5-min Rain = 0
KCO2 110249Z 08006KT 20/11 A3018 RMK A01 T02040106  RH  053%=      5-min Rain = 0
KCO2 110250Z 08006KT 20/11 A3018 RMK A01 T02040105  RH  053%=      5-min Rain = 0
KCO2 110251Z 08006KT 20/11 A3018 RMK A01 T02040105  RH  053%=      5-min Rain = 0
KCO2 110252Z 08006KT 20/11 A3018 RMK A01 T02040105  RH  053%=      5-min Rain = 0
KCO2 110253Z 08006KT 20/11 A3018 RMK A01 T02040105  RH  053%=      5-min Rain = 0
KCO2 110254Z 08006KT 20/11 A3018 RMK A01 T02040105  RH  053%=      5-min Rain = 0
KCO2 110255Z 07006KT 20/11 A3018 RMK A01 T02030105  RH  053%=      5-min Rain = 0
KCO2 110256Z 08006KT 20/11 A3018 RMK A01 T02030105  RH  053%=      5-min Rain = 0
KCO2 110257Z 08006KT 20/10 A3018 RMK A01 T02020104  RH  053%=      5-min Rain = 0
KCO2 110258Z 08006KT 20/10 A3018 RMK A01 T02010104  RH  054%=      5-min Rain = 0
KCO2 110259Z 08006KT 20/10 A3018 RMK A01 T02010104  RH  054%=      5-min Rain = 0
KCO2 110300Z 08006KT 20/10 A3018 RMK A01 T02010104  RH  054%=      5-min Rain = 0
KCO2 110301Z 08006KT 20/10 A3018 RMK A01 T02000104  RH  054%=      5-min Rain = 0
KCO2 110302Z 08005KT 20/10 A3018 RMK A01 T02000104  RH  054%=      5-min Rain = 0
KCO2 110303Z 08005KT 20/10 A3018 RMK A01 T02000104  RH  054%=      5-min Rain = 0
KCO2 110304Z 08005KT 20/10 A3018 RMK A01 T01990104  RH  054%=      5-min Rain = 0
KCO2 110305Z 09005KT 20/10 A3018 RMK A01 T01980104  RH  054%=      5-min Rain = 0
KCO2 110306Z 09005KT 20/10 A3018 RMK A01 T01980104  RH  055%=      5-min Rain = 0
KCO2 110307Z 08005KT 20/10 A3018 RMK A01 T01980104  RH  055%=      5-min Rain = 0
KCO2 110308Z 08005KT 20/10 A3018 RMK A01 T01980104  RH  055%=      5-min Rain = 0
KCO2 110309Z 08006KT 20/10 A3018 RMK A01 T01980104  RH  054%=      5-min Rain = 0
KCO2 110310Z 07006KT 20/10 A3018 RMK A01 T01970103  RH  054%=      5-min Rain = 0
KCO2 110311Z 07006KT 20/10 A3018 RMK A01 T01970103  RH  054%=      5-min Rain = 0
KCO2 110312Z 07006KT 20/10 A3019 RMK A01 T01970103  RH  054%=      5-min Rain = 0
KCO2 110313Z 07006KT 20/10 A3019 RMK A01 T01970102  RH  054%=      5-min Rain = 0
KCO2 110314Z 07006KT 20/10 A3019 RMK A01 T01970102  RH  054%=      5-min Rain = 0
KCO2 110315Z 08006KT 20/10 A3019 RMK A01 T01970102  RH  054%=      5-min Rain = 0
KCO2 110316Z 08006KT 20/10 A3019 RMK A01 T01970102  RH  054%=      5-min Rain = 0
KCO2 110317Z 08006KT 20/10 A3018 RMK A01 T01970102  RH  054%=      5-min Rain = 0
KCO2 110318Z 07006KT 20/10 A3018 RMK A01 T01970102  RH  054%=      5-min Rain = 0
KCO2 110319Z 08006KT 20/10 A3018 RMK A01 T01970102  RH  054%=      5-min Rain = 0
KCO2 110320Z 07006KT 20/10 A3018 RMK A01 T01970102  RH  054%=      5-min Rain = 0
KCO2 110321Z 07006KT 20/10 A3019 RMK A01 T01970102  RH  054%=      5-min Rain = 0
KCO2 110322Z 07006KT 20/10 A3019 RMK A01 T01960102  RH  054%=      5-min Rain = 0
KCO2 110323Z 07006KT 20/10 A3019 RMK A01 T01960102  RH  054%=      5-min Rain = 0
KCO2 110324Z 08006KT 20/10 A3019 RMK A01 T01950101  RH  054%=      5-min Rain = 0
KCO2 110325Z 08006KT 20/10 A3019 RMK A01 T01950101  RH  054%=      5-min Rain = 0
KCO2 110326Z 08006KT 20/10 A3019 RMK A01 T01950101  RH  054%=      5-min Rain = 0
KCO2 110327Z 08006KT 20/10 A3019 RMK A01 T01950101  RH  054%=      5-min Rain = 0
KCO2 110328Z 08006KT 20/10 A3019 RMK A01 T01950101  RH  054%=      5-min Rain = 0
KCO2 110329Z 08006KT 20/10 A3019 RMK A01 T01950101  RH  054%=      5-min Rain = 0
KCO2 110330Z 08006KT 20/10 A3019 RMK A01 T01950101  RH  055%=      5-min Rain = 0
KCO2 110331Z 08006KT 19/10 A3019 RMK A01 T01940100  RH  055%=      5-min Rain = 0
KCO2 110332Z 09006KT 19/10 A3019 RMK A01 T01930100  RH  055%=      5-min Rain = 0
KCO2 110333Z 09006KT 19/10 A3019 RMK A01 T01920101  RH  056%=      5-min Rain = 0
KCO2 110334Z 09006KT 19/10 A3019 RMK A01 T01920101  RH  056%=      5-min Rain = 0
KCO2 110335Z 08006KT 19/10 A3019 RMK A01 T01920101  RH  056%=      5-min Rain = 0
KCO2 110336Z 08006KT 19/10 A3019 RMK A01 T01920100  RH  055%=      5-min Rain = 0
KCO2 110337Z 08006KT 19/10 A3019 RMK A01 T01930101  RH  055%=      5-min Rain = 0
KCO2 110338Z 08006KT 19/10 A3019 RMK A01 T01920101  RH  055%=      5-min Rain = 0
KCO2 110339Z 08006KT 19/10 A3019 RMK A01 T01920101  RH  056%=      5-min Rain = 0
KCO2 110340Z 08006KT 19/10 A3019 RMK A01 T01910101  RH  056%=      5-min Rain = 0
KCO2 110341Z 08006KT 19/10 A3019 RMK A01 T01920101  RH  056%=      5-min Rain = 0
KCO2 110342Z 08006KT 19/10 A3019 RMK A01 T01920101  RH  056%=      5-min Rain = 0
KCO2 110343Z 08006KT 19/10 A3019 RMK A01 T01910101  RH  056%=      5-min Rain = 0
KCO2 110344Z 08006KT 19/10 A3019 RMK A01 T01910101  RH  056%=      5-min Rain = 0
KCO2 110345Z 07007KT 19/10 A3019 RMK A01 T01900101  RH  056%=      5-min Rain = 0
KCO2 110346Z 07007KT 19/10 A3019 RMK A01 T01900100  RH  056%=      5-min Rain = 0
KCO2 110347Z 08007KT 19/10 A3019 RMK A01 T01900100  RH  056%=      5-min Rain = 0
KCO2 110348Z 08007KT 19/10 A3019 RMK A01 T01910100  RH  056%=      5-min Rain = 0
KCO2 110349Z 08007KT 19/10 A3019 RMK A01 T01920100  RH  055%=      5-min Rain = 0
KCO2 110350Z 07007KT 19/10 A3019 RMK A01 T01920100  RH  055%=      5-min Rain = 0
KCO2 110351Z 07008KT 19/10 A3019 RMK A01 T01930100  RH  055%=      5-min Rain = 0
KCO2 110352Z 06009KT 19/10 A3019 RMK A01 T01920100  RH  055%=      5-min Rain = 0
KCO2 110353Z 07008KT 19/10 A3019 RMK A01 T01910100  RH  055%=      5-min Rain = 0
KCO2 110354Z 08008KT 19/10 A3019 RMK A01 T01910099  RH  055%=      5-min Rain = 0
KCO2 110355Z 08007KT 19/10 A3019 RMK A01 T01910099  RH  055%=      5-min Rain = 0
KCO2 110356Z 08007KT 19/10 A302 RMK A01 T01910099  RH  055%=      5-min Rain = 0
KCO2 110357Z 08007KT 19/10 A302 RMK A01 T01910099  RH  055%=      5-min Rain = 0
KCO2 110358Z 09007KT 19/10 A302 RMK A01 T01910099  RH  055%=      5-min Rain = 0
KCO2 110359Z 09007KT 19/10 A302 RMK A01 T01920100  RH  055%=      5-min Rain = 0
KCO2 110400Z 08006KT 19/10 A302 RMK A01 T01910100  RH  055%=      5-min Rain = 0
KCO2 110401Z 08007KT 19/10 A302 RMK A01 T01910100  RH  056%=      5-min Rain = 0
KCO2 110402Z 08007KT 19/10 A302 RMK A01 T01900100  RH  056%=      5-min Rain = 0
KCO2 110403Z 07007KT 19/10 A302 RMK A01 T01890100  RH  056%=      5-min Rain = 0
KCO2 110404Z 07007KT 19/10 A302 RMK A01 T01890100  RH  056%=      5-min Rain = 0
KCO2 110405Z 07007KT 19/10 A302 RMK A01 T01880100  RH  057%=      5-min Rain = 0
KCO2 110406Z 07007KT 19/10 A302 RMK A01 T01880100  RH  057%=      5-min Rain = 0
KCO2 110407Z 07007KT 19/10 A302 RMK A01 T01870100  RH  057%=      5-min Rain = 0
KCO2 110408Z 07007KT 19/10 A302 RMK A01 T01870100  RH  057%=      5-min Rain = 0
KCO2 110409Z 08006KT 19/10 A302 RMK A01 T01870100  RH  057%=      5-min Rain = 0
KCO2 110410Z 08006KT 19/10 A302 RMK A01 T01870100  RH  057%=      5-min Rain = 0
KCO2 110411Z 08007KT 19/10 A302 RMK A01 T01870100  RH  057%=      5-min Rain = 0
KCO2 110412Z 08006KT 19/10 A302 RMK A01 T01870100  RH  057%=      5-min Rain = 0
KCO2 110413Z 08006KT 19/10 A302 RMK A01 T01870100  RH  057%=      5-min Rain = 0
KCO2 110414Z 08006KT 19/10 A302 RMK A01 T01870100  RH  057%=      5-min Rain = 0
KCO2 110415Z 09006KT 19/10 A302 RMK A01 T01870100  RH  057%=      5-min Rain = 0
KCO2 110416Z 09006KT 19/10 A3019 RMK A01 T01870100  RH  057%=      5-min Rain = 0
KCO2 110417Z 09007KT 19/10 A3019 RMK A01 T01860100  RH  057%=      5-min Rain = 0
KCO2 110418Z 09006KT 19/10 A3019 RMK A01 T01860100  RH  057%=      5-min Rain = 0
KCO2 110419Z 09006KT 19/10 A3019 RMK A01 T01850100  RH  058%=      5-min Rain = 0
KCO2 110420Z 09005KT 19/10 A3019 RMK A01 T01850101  RH  058%=      5-min Rain = 0
KCO2 110421Z 09005KT 18/10 A3019 RMK A01 T01840100  RH  058%=      5-min Rain = 0
KCO2 110422Z 09005KT 18/10 A3019 RMK A01 T01840100  RH  058%=      5-min Rain = 0
KCO2 110423Z 09006KT 18/10 A3019 RMK A01 T01820100  RH  059%=      5-min Rain = 0
KCO2 110424Z 09005KT 18/10 A3019 RMK A01 T01820100  RH  059%=      5-min Rain = 0
KCO2 110425Z 09005KT 18/10 A3019 RMK A01 T01820100  RH  059%=      5-min Rain = 0
KCO2 110426Z 09005KT 18/10 A3019 RMK A01 T01820100  RH  059%=      5-min Rain = 0
KCO2 110427Z 09006KT 18/10 A3019 RMK A01 T01820100  RH  059%=      5-min Rain = 0
KCO2 110428Z 09006KT 18/10 A3019 RMK A01 T01810100  RH  059%=      5-min Rain = 0
KCO2 110429Z 09005KT 18/10 A3019 RMK A01 T01820101  RH  059%=      5-min Rain = 0
KCO2 110430Z 09005KT 18/10 A302 RMK A01 T01810100  RH  059%=      5-min Rain = 0
KCO2 110431Z 09005KT 18/10 A302 RMK A01 T01810100  RH  059%=      5-min Rain = 0
KCO2 110432Z 09006KT 18/10 A302 RMK A01 T01800101  RH  060%=      5-min Rain = 0
KCO2 110433Z 09006KT 18/10 A302 RMK A01 T01800100  RH  060%=      5-min Rain = 0
KCO2 110434Z 09005KT 18/10 A302 RMK A01 T01800100  RH  060%=      5-min Rain = 0
KCO2 110435Z 09005KT 18/10 A302 RMK A01 T01800100  RH  060%=      5-min Rain = 0
KCO2 110436Z 09005KT 18/10 A302 RMK A01 T01800100  RH  060%=      5-min Rain = 0
KCO2 110437Z 09005KT 18/10 A302 RMK A01 T01800100  RH  060%=      5-min Rain = 0
KCO2 110438Z 09004KT 18/10 A302 RMK A01 T01790100  RH  060%=      5-min Rain = 0
KCO2 110439Z 09005KT 18/10 A302 RMK A01 T01780100  RH  060%=      5-min Rain = 0
KCO2 110440Z 09005KT 18/10 A302 RMK A01 T01770099  RH  060%=      5-min Rain = 0
KCO2 110441Z 09005KT 18/10 A302 RMK A01 T01760099  RH  061%=      5-min Rain = 0
KCO2 110442Z 09005KT 18/10 A302 RMK A01 T01770099  RH  060%=      5-min Rain = 0
KCO2 110443Z 09005KT 18/10 A302 RMK A01 T01780099  RH  060%=      5-min Rain = 0
KCO2 110444Z 09005KT 18/10 A302 RMK A01 T01780099  RH  060%=      5-min Rain = 0
KCO2 110445Z 09005KT 18/10 A302 RMK A01 T01780100  RH  060%=      5-min Rain = 0
KCO2 110446Z 09005KT 18/10 A302 RMK A01 T01780099  RH  060%=      5-min Rain = 0
KCO2 110447Z 09005KT 18/10 A302 RMK A01 T01780100  RH  060%=      5-min Rain = 0
KCO2 110448Z 09005KT 18/10 A302 RMK A01 T01770100  RH  060%=      5-min Rain = 0
KCO2 110449Z 09004KT 18/10 A302 RMK A01 T01770099  RH  060%=      5-min Rain = 0
KCO2 110450Z 09004KT 18/10 A302 RMK A01 T01760099  RH  060%=      5-min Rain = 0
KCO2 110451Z 10004KT 18/10 A302 RMK A01 T01760099  RH  061%=      5-min Rain = 0
KCO2 110452Z 10004KT 17/10 A302 RMK A01 T01740099  RH  061%=      5-min Rain = 0
KCO2 110453Z 10005KT 17/10 A302 RMK A01 T01710098  RH  062%=      5-min Rain = 0
KCO2 110454Z 10005KT 17/10 A302 RMK A01 T01670099  RH  064%=      5-min Rain = 0
KCO2 110455Z 11005KT 17/10 A302 RMK A01 T01650098  RH  065%=      5-min Rain = 0
KCO2 110456Z 13005KT 16/10 A302 RMK A01 T01630098  RH  065%=      5-min Rain = 0
KCO2 110457Z 13005KT 16/10 A302 RMK A01 T01620098  RH  066%=      5-min Rain = 0
KCO2 110458Z 12005KT 16/10 A302 RMK A01 T01620098  RH  066%=      5-min Rain = 0
KCO2 110459Z 12005KT 16/10 A302 RMK A01 T01620098  RH  066%=      5-min Rain = 0

Page generated in 0.0728 seconds.